Wetterdaten: Sonntag, 05.01.2020
Datum Zeit Temp. Aussen Temp. o. S. Temp +5cm Feuchte Auss Luftdruck Regen Sonnenschein Regendauer Solar Windben Empfang
05.01.2020 00:00 6,3 C 5,6 C 5,0 C 99 % 1033,8 hPa 0,0 l/m 0 min 0 min 0 W/m 0,0 km/h (0 Bft) 95,65 %
05.01.2020 00:02 6,3 C 5,6 C 5,0 C 99 % 1033,9 hPa 0,0 l/m 0 min 0 min 0 W/m 3,2 km/h (1 Bft) 94,87 %
05.01.2020 00:04 6,3 C 5,6 C 5,0 C 99 % 1033,9 hPa 0,0 l/m 0 min 0 min 0 W/m 0,0 km/h (0 Bft) 93,62 %
05.01.2020 00:08 6,3 C 5,6 C 5,0 C 99 % 1034,0 hPa 0,0 l/m 0 min 0 min 0 W/m 3,2 km/h (1 Bft) 93,62 %
05.01.2020 00:10 6,3 C 5,6 C 5,0 C 99 % 1034,0 hPa 0,0 l/m 0 min 0 min 0 W/m 3,2 km/h (1 Bft) 93,62 %
05.01.2020 00:12 6,3 C 5,6 C 5,0 C 99 % 1034,0 hPa 0,0 l/m 0 min 0 min 0 W/m 6,4 km/h (2 Bft) 93,48 %
05.01.2020 00:14 6,3 C 5,6 C 5,0 C 99 % 1034,0 hPa 0,0 l/m 0 min 0 min 0 W/m 3,2 km/h (1 Bft) 96,30 %
05.01.2020 00:16 6,3 C 5,6 C 5,0 C 99 % 1034,1 hPa 0,0 l/m 0 min 0 min 0 W/m 6,4 km/h (2 Bft) 92,11 %
05.01.2020 00:18 6,3 C 5,6 C 5,0 C 99 % 1034,0 hPa 0,0 l/m 0 min 0 min 0 W/m 12,9 km/h (3 Bft) 91,84 %
05.01.2020 00:20 6,3 C 5,6 C 5,0 C 99 % 1034,0 hPa 0,0 l/m 0 min 0 min 0 W/m 3,2 km/h (1 Bft) 91,49 %
05.01.2020 00:22 6,3 C 5,6 C 5,0 C 99 % 1034,0 hPa 0,0 l/m 0 min 0 min 0 W/m 0,0 km/h (0 Bft) 91,30 %
05.01.2020 00:24 6,3 C 5,6 C 5,0 C 99 % 1034,1 hPa 0,0 l/m 0 min 0 min 0 W/m 3,2 km/h (1 Bft) 93,62 %
05.01.2020 00:26 6,3 C 5,6 C 5,0 C 99 % 1034,1 hPa 0,0 l/m 0 min 0 min 0 W/m 3,2 km/h (1 Bft) 93,62 %
05.01.2020 00:28 6,3 C 5,6 C 5,0 C 99 % 1034,1 hPa 0,0 l/m 0 min 0 min 0 W/m 3,2 km/h (1 Bft) 95,74 %
05.01.2020 00:30 6,3 C 5,6 C 5,0 C 99 % 1034,1 hPa 0,0 l/m 0 min 0 min 0 W/m 12,9 km/h (3 Bft) 93,62 %
05.01.2020 00:32 6,3 C 5,6 C 5,0 C 99 % 1034,2 hPa 0,0 l/m 0 min 0 min 0 W/m 0,0 km/h (0 Bft) 93,62 %
05.01.2020 00:34 6,3 C 5,6 C 5,0 C 99 % 1034,1 hPa 0,0 l/m 0 min 0 min 0 W/m 0,0 km/h (0 Bft) 92,45 %
05.01.2020 00:36 6,3 C 5,6 C 5,0 C 99 % 1034,2 hPa 0,0 l/m 0 min 0 min 0 W/m 0,0 km/h (0 Bft) 93,62 %
05.01.2020 00:38 6,3 C 5,6 C 5,0 C 99 % 1034,2 hPa 0,0 l/m 0 min 0 min 0 W/m 6,4 km/h (2 Bft) 93,62 %
05.01.2020 00:40 6,3 C 5,6 C 5,0 C 99 % 1034,2 hPa 0,0 l/m 0 min 0 min 0 W/m 0,0 km/h (0 Bft) 95,74 %
05.01.2020 00:42 6,3 C 5,6 C 5,0 C 99 % 1034,2 hPa 0,0 l/m 0 min 0 min 0 W/m 0,0 km/h (0 Bft) 93,62 %
05.01.2020 00:44 6,3 C 5,6 C 5,0 C 99 % 1034,2 hPa 0,0 l/m 0 min 0 min 0 W/m 0,0 km/h (0 Bft) 94,74 %
05.01.2020 00:46 6,3 C 5,6 C 5,0 C 99 % 1034,2 hPa 0,0 l/m 0 min 0 min 0 W/m 6,4 km/h (2 Bft) 97,83 %
05.01.2020 00:48 6,3 C 5,6 C 5,0 C 99 % 1034,2 hPa 0,0 l/m 0 min 0 min 0 W/m 3,2 km/h (1 Bft) 97,87 %
05.01.2020 00:50 6,3 C 5,6 C 5,0 C 99 % 1034,2 hPa 0,0 l/m 0 min 0 min 0 W/m 0,0 km/h (0 Bft) 97,96 %
05.01.2020 00:52 6,3 C 5,6 C 5,0 C 99 % 1034,2 hPa 0,0 l/m 0 min 0 min 0 W/m 0,0 km/h (0 Bft) 93,62 %
05.01.2020 00:54 6,3 C 5,6 C 5,0 C 99 % 1034,3 hPa 0,0 l/m 0 min 0 min 0 W/m 0,0 km/h (0 Bft) 100,00 %
05.01.2020 00:56 6,3 C 5,6 C 5,0 C 99 % 1034,3 hPa 0,0 l/m 0 min 0 min 0 W/m 0,0 km/h (0 Bft) 97,83 %
05.01.2020 00:58 6,3 C 5,6 C 5,0 C 99 % 1034,3 hPa 0,0 l/m 0 min 0 min 0 W/m 6,4 km/h (2 Bft) 100,00 %
05.01.2020 01:00 6,3 C 5,6 C 5,0 C 99 % 1034,3 hPa 0,0 l/m 0 min 0 min 0 W/m 3,2 km/h (1 Bft) 100,00 %
05.01.2020 01:02 6,3 C 5,6 C 5,0 C 99 % 1034,3 hPa 0,0 l/m 0 min 0 min 0 W/m 3,2 km/h (1 Bft) 97,87 %
05.01.2020 01:04 6,3 C 5,6 C 5,0 C 99 % 1034,3 hPa 0,0 l/m 0 min 0 min 0 W/m 0,0 km/h (0 Bft) 97,87 %
05.01.2020 01:06 6,3 C 5,6 C 5,0 C 99 % 1034,3 hPa 0,0 l/m 0 min 0 min 0 W/m 0,0 km/h (0 Bft) 100,00 %
05.01.2020 01:08 6,3 C 5,6 C 5,0 C 99 % 1034,3 hPa 0,0 l/m 0 min 0 min 0 W/m 3,2 km/h (1 Bft) 97,78 %
05.01.2020 01:10 6,3 C 5,6 C 5,0 C 99 % 1034,4 hPa 0,0 l/m 0 min 0 min 0 W/m 0,0 km/h (0 Bft) 100,00 %
05.01.2020 01:12 6,3 C 5,6 C 5,0 C 99 % 1034,4 hPa 0,0 l/m 0 min 0 min 0 W/m 0,0 km/h (0 Bft) 95,74 %
05.01.2020 01:14 6,3 C 5,6 C 5,0 C 99 % 1034,4 hPa 0,0 l/m 0 min 0 min 0 W/m 0,0 km/h (0 Bft) 100,00 %
05.01.2020 01:16 6,3 C 5,6 C 5,0 C 99 % 1034,5 hPa 0,0 l/m 0 min 0 min 0 W/m 0,0 km/h (0 Bft) 100,00 %
05.01.2020 01:18 6,3 C 5,6 C 5,0 C 99 % 1034,5 hPa 0,0 l/m 0 min 0 min 0 W/m 0,0 km/h (0 Bft) 100,00 %
05.01.2020 01:20 6,3 C 5,6 C 5,0 C 99 % 1034,5 hPa 0,0 l/m 0 min 0 min 0 W/m 0,0 km/h (0 Bft) 100,00 %
05.01.2020 01:22 6,3 C 5,6 C 5,0 C 99 % 1034,5 hPa 0,0 l/m 0 min 0 min 0 W/m 0,0 km/h (0 Bft) 100,00 %
05.01.2020 01:24 6,3 C 5,6 C 5,0 C 99 % 1034,6 hPa 0,0 l/m 0 min 0 min 0 W/m 3,2 km/h (1 Bft) 100,00 %
05.01.2020 01:26 6,4 C 5,6 C 5,0 C 99 % 1034,6 hPa 0,0 l/m 0 min 0 min 0 W/m 3,2 km/h (1 Bft) 97,87 %
05.01.2020 01:28 6,3 C 5,6 C 5,0 C 99 % 1034,6 hPa 0,0 l/m 0 min 0 min 0 W/m 0,0 km/h (0 Bft) 100,00 %
05.01.2020 01:30 6,3 C 5,6 C 5,0 C 99 % 1034,6 hPa 0,0 l/m 0 min 0 min 0 W/m 3,2 km/h (1 Bft) 100,00 %
05.01.2020 01:32 6,4 C 5,6 C 5,0 C 99 % 1034,6 hPa 0,0 l/m 0 min 0 min 0 W/m 0,0 km/h (0 Bft) 100,00 %
05.01.2020 01:34 6,4 C 5,6 C 5,0 C 99 % 1034,6 hPa 0,0 l/m 0 min 0 min 0 W/m 0,0 km/h (0 Bft) 97,87 %
05.01.2020 01:36 6,4 C 5,6 C 5,0 C 99 % 1034,6 hPa 0,0 l/m 0 min 0 min 0 W/m 0,0 km/h (0 Bft) 100,00 %
05.01.2020 01:38 6,4 C 5,6 C 5,0 C 99 % 1034,6 hPa 0,0 l/m 0 min 0 min 0 W/m 0,0 km/h (0 Bft) 100,00 %
05.01.2020 01:40 6,4 C 5,6 C 5,0 C 99 % 1034,7 hPa 0,0 l/m 0 min 0 min 0 W/m 0,0 km/h (0 Bft) 100,00 %
05.01.2020 01:42 6,4 C 5,6 C 5,0 C 99 % 1034,6 hPa 0,0 l/m 0 min 0 min 0 W/m 0,0 km/h (0 Bft) 100,00 %
05.01.2020 01:44 6,4 C 5,6 C 5,0 C 99 % 1034,6 hPa 0,0 l/m 0 min 0 min 0 W/m 0,0 km/h (0 Bft) 100,00 %
05.01.2020 01:46 6,4 C 5,6 C 5,0 C 99 % 1034,6 hPa 0,0 l/m 0 min 0 min 0 W/m 0,0 km/h (0 Bft) 100,00 %
05.01.2020 01:48 6,4 C 5,6 C 5,0 C 99 % 1034,6 hPa 0,0 l/m 0 min 0 min 0 W/m 0,0 km/h (0 Bft) 100,00 %
05.01.2020 01:50 6,4 C 5,6 C 5,0 C 99 % 1034,6 hPa 0,0 l/m 0 min 0 min 0 W/m 0,0 km/h (0 Bft) 100,00 %
05.01.2020 01:52 6,4 C 5,6 C 5,0 C 99 % 1034,5 hPa 0,0 l/m 0 min 0 min 0 W/m 0,0 km/h (0 Bft) 100,00 %
05.01.2020 01:54 6,4 C 5,6 C 5,0 C 99 % 1034,5 hPa 0,0 l/m 0 min 0 min 0 W/m 0,0 km/h (0 Bft) 97,37 %
05.01.2020 01:56 6,4 C 5,6 C 5,0 C 99 % 1034,5 hPa 0,0 l/m 0 min 0 min 0 W/m 0,0 km/h (0 Bft) 97,83 %
05.01.2020 01:58 6,4 C 5,6 C 5,0 C 99 % 1034,5 hPa 0,0 l/m 0 min 0 min 0 W/m 0,0 km/h (0 Bft) 97,96 %
05.01.2020 02:00 6,4 C 5,6 C 5,0 C 99 % 1034,5 hPa 0,0 l/m 0 min 0 min 0 W/m 0,0 km/h (0 Bft) 97,87 %
05.01.2020 02:02 6,4 C 5,6 C 5,0 C 99 % 1034,6 hPa 0,0 l/m 0 min 0 min 0 W/m 0,0 km/h (0 Bft) 100,00 %
05.01.2020 02:04 6,4 C 5,6 C 5,0 C 99 % 1034,6 hPa 0,0 l/m 0 min 0 min 0 W/m 0,0 km/h (0 Bft) 100,00 %
05.01.2020 02:06 6,4 C 5,6 C 5,0 C 99 % 1034,6 hPa 0,0 l/m 0 min 0 min 0 W/m 3,2 km/h (1 Bft) 100,00 %
05.01.2020 02:08 6,4 C 5,6 C 5,0 C 99 % 1034,7 hPa 0,0 l/m 0 min 0 min 0 W/m 0,0 km/h (0 Bft) 100,00 %
05.01.2020 02:10 6,4 C 5,6 C 5,0 C 99 % 1034,7 hPa 0,0 l/m 0 min 0 min 0 W/m 3,2 km/h (1 Bft) 100,00 %
05.01.2020 02:12 6,4 C 5,6 C 5,0 C 99 % 1034,7 hPa 0,0 l/m 0 min 0 min 0 W/m 0,0 km/h (0 Bft) 100,00 %
05.01.2020 02:14 6,3 C 5,6 C 5,0 C 99 % 1034,7 hPa 0,0 l/m 0 min 0 min 0 W/m 3,2 km/h (1 Bft) 100,00 %
05.01.2020 02:16 6,4 C 5,6 C 5,0 C 99 % 1034,7 hPa 0,0 l/m 0 min 0 min 0 W/m 0,0 km/h (0 Bft) 100,00 %
05.01.2020 02:18 6,4 C 5,6 C 5,0 C 99 % 1034,8 hPa 0,0 l/m 0 min 0 min 0 W/m 0,0 km/h (0 Bft) 100,00 %
05.01.2020 02:20 6,3 C 5,6 C 5,0 C 99 % 1034,8 hPa 0,0 l/m 0 min 0 min 0 W/m 3,2 km/h (1 Bft) 100,00 %
05.01.2020 02:22 6,3 C 5,6 C 5,0 C 99 % 1034,8 hPa 0,0 l/m 0 min 0 min 0 W/m 0,0 km/h (0 Bft) 100,00 %
05.01.2020 02:24 6,4 C 5,6 C 5,0 C 99 % 1034,8 hPa 0,0 l/m 0 min 0 min 0 W/m 0,0 km/h (0 Bft) 100,00 %
05.01.2020 02:26 6,4 C 5,6 C 5,0 C 99 % 1034,8 hPa 0,0 l/m 0 min 0 min 0 W/m 0,0 km/h (0 Bft) 100,00 %
05.01.2020 02:28 6,3 C 5,6 C 5,0 C 99 % 1034,7 hPa 0,0 l/m 0 min 0 min 0 W/m 0,0 km/h (0 Bft) 100,00 %
05.01.2020 02:30 6,3 C 5,6 C 5,0 C 99 % 1034,8 hPa 0,0 l/m 0 min 0 min 0 W/m 3,2 km/h (1 Bft) 100,00 %
05.01.2020 02:32 6,3 C 5,6 C 5,0 C 99 % 1034,8 hPa 0,0 l/m 0 min 0 min 0 W/m 0,0 km/h (0 Bft) 97,87 %
05.01.2020 02:34 6,3 C 5,6 C 5,0 C 99 % 1034,8 hPa 0,0 l/m 0 min 0 min 0 W/m 0,0 km/h (0 Bft) 97,87 %
05.01.2020 02:36 6,3 C 5,6 C 5,0 C 99 % 1034,8 hPa 0,0 l/m 0 min 0 min 0 W/m 0,0 km/h (0 Bft) 100,00 %
05.01.2020 02:38 6,3 C 5,6 C 5,0 C 99 % 1034,9 hPa 0,0 l/m 0 min 0 min 0 W/m 0,0 km/h (0 Bft) 95,74 %
05.01.2020 02:40 6,3 C 5,6 C 5,0 C 99 % 1034,8 hPa 0,0 l/m 0 min 0 min 0 W/m 0,0 km/h (0 Bft) 97,87 %
05.01.2020 02:42 6,3 C 5,6 C 5,0 C 99 % 1034,9 hPa 0,0 l/m 0 min 0 min 0 W/m 0,0 km/h (0 Bft) 97,83 %
05.01.2020 02:44 6,3 C 5,6 C 5,0 C 99 % 1034,9 hPa 0,0 l/m 0 min 0 min 0 W/m 0,0 km/h (0 Bft) 98,15 %
05.01.2020 02:46 6,3 C 5,6 C 5,0 C 99 % 1035,0 hPa 0,0 l/m 0 min 0 min 0 W/m 0,0 km/h (0 Bft) 39,39 %
05.01.2020 02:48 6,3 C 5,6 C 5,0 C 99 % 1035,0 hPa 0,0 l/m 0 min 0 min 0 W/m 0,0 km/h (0 Bft) 93,75 %
05.01.2020 02:50 6,3 C 5,6 C 5,0 C 99 % 1034,9 hPa 0,0 l/m 0 min 0 min 0 W/m 3,2 km/h (1 Bft) 95,92 %
05.01.2020 02:52 6,3 C 5,6 C 5,0 C 99 % 1035,0 hPa 0,0 l/m 0 min 0 min 0 W/m 0,0 km/h (0 Bft) 97,87 %
05.01.2020 02:54 6,3 C 5,6 C 5,0 C 99 % 1035,0 hPa 0,0 l/m 0 min 0 min 0 W/m 0,0 km/h (0 Bft) 96,23 %
05.01.2020 02:56 6,3 C 5,6 C 5,0 C 99 % 1035,0 hPa 0,0 l/m 0 min 0 min 0 W/m 0,0 km/h (0 Bft) 97,87 %
05.01.2020 02:58 6,3 C 5,6 C 5,0 C 99 % 1035,0 hPa 0,0 l/m 0 min 0 min 0 W/m 0,0 km/h (0 Bft) 95,74 %
05.01.2020 03:00 6,3 C 5,6 C 5,0 C 99 % 1035,0 hPa 0,0 l/m 0 min 0 min 0 W/m 0,0 km/h (0 Bft) 97,37 %
05.01.2020 03:02 6,3 C 5,6 C 5,0 C 99 % 1035,0 hPa 0,0 l/m 0 min 0 min 0 W/m 0,0 km/h (0 Bft) 95,74 %
05.01.2020 03:04 6,3 C 5,6 C 5,0 C 99 % 1035,0 hPa 0,0 l/m 0 min 0 min 0 W/m 0,0 km/h (0 Bft) 91,67 %
05.01.2020 03:06 6,3 C 5,6 C 5,0 C 99 % 1035,1 hPa 0,0 l/m 0 min 0 min 0 W/m 0,0 km/h (0 Bft) 91,49 %
05.01.2020 03:08 6,3 C 5,6 C 5,0 C 99 % 1035,1 hPa 0,0 l/m 0 min 0 min 0 W/m 0,0 km/h (0 Bft) 91,49 %
05.01.2020 03:10 6,3 C 5,6 C 5,0 C 99 % 1035,1 hPa 0,0 l/m 0 min 0 min 0 W/m 0,0 km/h (0 Bft) 93,62 %
05.01.2020 03:12 6,3 C 5,6 C 5,0 C 99 % 1035,1 hPa 0,0 l/m 0 min 0 min 0 W/m 0,0 km/h (0 Bft) 93,62 %
05.01.2020 03:14 6,3 C 5,6 C 5,0 C 99 % 1035,1 hPa 0,0 l/m 0 min 0 min 0 W/m 0,0 km/h (0 Bft) 93,62 %
05.01.2020 03:16 6,3 C 5,6 C 5,0 C 99 % 1035,1 hPa 0,0 l/m 0 min 0 min 0 W/m 3,2 km/h (1 Bft) 95,65 %
05.01.2020 03:18 6,3 C 5,6 C 5,0 C 99 % 1035,1 hPa 0,0 l/m 0 min 0 min 0 W/m 3,2 km/h (1 Bft) 96,30 %
05.01.2020 03:20 6,3 C 5,6 C 5,0 C 99 % 1035,1 hPa 0,0 l/m 0 min 0 min 0 W/m 6,4 km/h (2 Bft) 95,74 %
05.01.2020 03:22 6,3 C 5,6 C 5,0 C 99 % 1035,1 hPa 0,0 l/m 0 min 0 min 0 W/m 0,0 km/h (0 Bft) 95,74 %
05.01.2020 03:24 6,3 C 5,6 C 5,0 C 99 % 1035,1 hPa 0,0 l/m 0 min 0 min 0 W/m 3,2 km/h (1 Bft) 89,47 %
05.01.2020 03:26 6,3 C 5,6 C 5,0 C 99 % 1035,1 hPa 0,0 l/m 0 min 0 min 0 W/m 0,0 km/h (0 Bft) 95,74 %
05.01.2020 03:28 6,3 C 5,6 C 5,0 C 99 % 1035,2 hPa 0,0 l/m 0 min 0 min 0 W/m 0,0 km/h (0 Bft) 95,65 %
05.01.2020 03:30 6,3 C 5,6 C 5,0 C 99 % 1035,2 hPa 0,0 l/m 0 min 0 min 0 W/m 0,0 km/h (0 Bft) 95,92 %
05.01.2020 03:32 6,3 C 5,6 C 5,0 C 99 % 1035,2 hPa 0,0 l/m 0 min 0 min 0 W/m 0,0 km/h (0 Bft) 91,49 %
05.01.2020 03:34 6,3 C 5,6 C 5,0 C 99 % 1035,2 hPa 0,0 l/m 0 min 0 min 0 W/m 0,0 km/h (0 Bft) 95,74 %
05.01.2020 03:36 6,3 C 5,6 C 5,0 C 99 % 1035,2 hPa 0,0 l/m 0 min 0 min 0 W/m 0,0 km/h (0 Bft) 95,74 %
05.01.2020 03:38 6,3 C 5,6 C 5,0 C 99 % 1035,2 hPa 0,0 l/m 0 min 0 min 0 W/m 0,0 km/h (0 Bft) 92,45 %
05.01.2020 03:40 6,3 C 5,6 C 5,0 C 99 % 1035,2 hPa 0,0 l/m 0 min 0 min 0 W/m 0,0 km/h (0 Bft) 95,74 %
05.01.2020 03:42 6,3 C 5,6 C 5,0 C 99 % 1035,2 hPa 0,0 l/m 0 min 0 min 0 W/m 0,0 km/h (0 Bft) 95,74 %
05.01.2020 03:44 6,3 C 5,6 C 5,0 C 99 % 1035,2 hPa 0,0 l/m 0 min 0 min 0 W/m 0,0 km/h (0 Bft) 94,74 %
05.01.2020 03:46 6,3 C 5,6 C 5,0 C 99 % 1035,2 hPa 0,0 l/m 0 min 0 min 0 W/m 0,0 km/h (0 Bft) 95,92 %
05.01.2020 03:48 6,3 C 5,6 C 5,0 C 99 % 1035,3 hPa 0,0 l/m 0 min 0 min 0 W/m 3,2 km/h (1 Bft) 95,74 %
05.01.2020 03:50 6,3 C 5,6 C 5,0 C 99 % 1035,3 hPa 0,0 l/m 0 min 0 min 0 W/m 0,0 km/h (0 Bft) 96,23 %
05.01.2020 03:52 6,3 C 5,6 C 5,0 C 99 % 1035,3 hPa 0,0 l/m 0 min 0 min 0 W/m 0,0 km/h (0 Bft) 97,87 %
05.01.2020 03:54 6,3 C 5,6 C 5,0 C 99 % 1035,3 hPa 0,0 l/m 0 min 0 min 0 W/m 0,0 km/h (0 Bft) 100,00 %
05.01.2020 03:56 6,2 C 5,6 C 5,0 C 99 % 1035,3 hPa 0,0 l/m 0 min 0 min 0 W/m 0,0 km/h (0 Bft) 97,96 %
05.01.2020 03:58 6,2 C 5,6 C 5,0 C 99 % 1035,4 hPa 0,0 l/m 0 min 0 min 0 W/m 0,0 km/h (0 Bft) 97,87 %
05.01.2020 04:00 6,2 C 5,6 C 5,0 C 99 % 1035,4 hPa 0,0 l/m 0 min 0 min 0 W/m 0,0 km/h (0 Bft) 100,00 %
05.01.2020 04:02 6,2 C 5,6 C 5,0 C 99 % 1035,4 hPa 0,0 l/m 0 min 0 min 0 W/m 0,0 km/h (0 Bft) 100,00 %
05.01.2020 04:04 6,2 C 5,6 C 5,0 C 99 % 1035,3 hPa 0,0 l/m 0 min 0 min 0 W/m 0,0 km/h (0 Bft) 97,87 %
05.01.2020 04:06 6,2 C 5,6 C 5,0 C 99 % 1035,3 hPa 0,0 l/m 0 min 0 min 0 W/m 0,0 km/h (0 Bft) 100,00 %
05.01.2020 04:08 6,2 C 5,6 C 5,0 C 99 % 1035,3 hPa 0,0 l/m 0 min 0 min 0 W/m 0,0 km/h (0 Bft) 52,27 %
05.01.2020 04:10 6,2 C 5,6 C 5,0 C 99 % 1035,4 hPa 0,0 l/m 0 min 0 min 0 W/m 0,0 km/h (0 Bft) 100,00 %
05.01.2020 04:12 6,2 C 5,6 C 5,0 C 99 % 1035,4 hPa 0,0 l/m 0 min 0 min 0 W/m 0,0 km/h (0 Bft) 100,00 %
05.01.2020 04:14 6,2 C 5,6 C 5,0 C 99 % 1035,4 hPa 0,0 l/m 0 min 0 min 0 W/m 0,0 km/h (0 Bft) 100,00 %
05.01.2020 04:16 6,2 C 5,6 C 5,0 C 99 % 1035,4 hPa 0,0 l/m 0 min 0 min 0 W/m 0,0 km/h (0 Bft) 100,00 %
05.01.2020 04:18 6,3 C 5,6 C 5,0 C 99 % 1035,3 hPa 0,0 l/m 0 min 0 min 0 W/m 3,2 km/h (1 Bft) 97,87 %
05.01.2020 04:20 6,3 C 5,6 C 5,0 C 99 % 1035,3 hPa 0,0 l/m 0 min 0 min 0 W/m 0,0 km/h (0 Bft) 97,87 %
05.01.2020 04:22 6,3 C 5,6 C 5,0 C 99 % 1035,3 hPa 0,0 l/m 0 min 0 min 0 W/m 0,0 km/h (0 Bft) 100,00 %
05.01.2020 04:24 6,2 C 5,6 C 5,0 C 99 % 1035,3 hPa 0,0 l/m 0 min 0 min 0 W/m 0,0 km/h (0 Bft) 100,00 %
05.01.2020 04:26 6,2 C 5,6 C 5,0 C 99 % 1035,4 hPa 0,0 l/m 0 min 0 min 0 W/m 0,0 km/h (0 Bft) 100,00 %
05.01.2020 04:28 6,3 C 5,6 C 5,0 C 99 % 1035,4 hPa 0,0 l/m 0 min 0 min 0 W/m 0,0 km/h (0 Bft) 100,00 %
05.01.2020 04:30 6,3 C 5,6 C 5,0 C 99 % 1035,4 hPa 0,0 l/m 0 min 0 min 0 W/m 0,0 km/h (0 Bft) 100,00 %
05.01.2020 04:32 6,3 C 5,6 C 5,0 C 99 % 1035,3 hPa 0,0 l/m 0 min 0 min 0 W/m 0,0 km/h (0 Bft) 100,00 %
05.01.2020 04:34 6,3 C 5,6 C 5,0 C 99 % 1035,3 hPa 0,0 l/m 0 min 0 min 0 W/m 0,0 km/h (0 Bft) 100,00 %
05.01.2020 04:36 6,3 C 5,6 C 5,0 C 99 % 1035,3 hPa 0,0 l/m 0 min 0 min 0 W/m 0,0 km/h (0 Bft) 100,00 %
05.01.2020 04:38 6,3 C 5,6 C 5,0 C 99 % 1035,3 hPa 0,0 l/m 0 min 0 min 0 W/m 6,4 km/h (2 Bft) 98,15 %
05.01.2020 04:40 6,3 C 5,6 C 5,0 C 99 % 1035,3 hPa 0,0 l/m 0 min 0 min 0 W/m 3,2 km/h (1 Bft) 100,00 %
05.01.2020 04:42 6,3 C 5,6 C 5,0 C 99 % 1035,3 hPa 0,0 l/m 0 min 0 min 0 W/m 0,0 km/h (0 Bft) 100,00 %
05.01.2020 04:44 6,3 C 5,6 C 5,0 C 99 % 1035,3 hPa 0,0 l/m 0 min 0 min 0 W/m 3,2 km/h (1 Bft) 100,00 %
05.01.2020 04:46 6,2 C 5,6 C 5,0 C 99 % 1035,3 hPa 0,0 l/m 0 min 0 min 0 W/m 3,2 km/h (1 Bft) 100,00 %
05.01.2020 04:48 6,3 C 5,6 C 5,0 C 99 % 1035,3 hPa 0,0 l/m 0 min 0 min 0 W/m 3,2 km/h (1 Bft) 100,00 %
05.01.2020 04:50 6,2 C 5,6 C 5,0 C 99 % 1035,3 hPa 0,0 l/m 0 min 0 min 0 W/m 0,0 km/h (0 Bft) 100,00 %
05.01.2020 04:52 6,2 C 5,6 C 5,0 C 99 % 1035,3 hPa 0,0 l/m 0 min 0 min 0 W/m 0,0 km/h (0 Bft) 100,00 %
05.01.2020 04:54 6,2 C 5,6 C 5,0 C 99 % 1035,2 hPa 0,0 l/m 0 min 0 min 0 W/m 6,4 km/h (2 Bft) 100,00 %
05.01.2020 04:56 6,2 C 5,6 C 5,0 C 99 % 1035,2 hPa 0,0 l/m 0 min 0 min 0 W/m 0,0 km/h (0 Bft) 100,00 %
05.01.2020 04:58 6,2 C 5,6 C 5,0 C 99 % 1035,2 hPa 0,0 l/m 0 min 0 min 0 W/m 6,4 km/h (2 Bft) 97,87 %
05.01.2020 05:00 6,2 C 5,6 C 5,0 C 99 % 1035,2 hPa 0,0 l/m 0 min 0 min 0 W/m 6,4 km/h (2 Bft) 100,00 %
05.01.2020 05:02 6,2 C 5,6 C 5,0 C 99 % 1035,2 hPa 0,0 l/m 0 min 0 min 0 W/m 0,0 km/h (0 Bft) 100,00 %
05.01.2020 05:04 6,2 C 5,6 C 5,0 C 99 % 1035,2 hPa 0,0 l/m 0 min 0 min 0 W/m 0,0 km/h (0 Bft) 97,87 %
05.01.2020 05:06 6,2 C 5,6 C 5,0 C 99 % 1035,1 hPa 0,0 l/m 0 min 0 min 0 W/m 0,0 km/h (0 Bft) 97,87 %
05.01.2020 05:08 6,2 C 5,6 C 5,0 C 99 % 1035,2 hPa 0,0 l/m 0 min 0 min 0 W/m 3,2 km/h (1 Bft) 97,87 %
05.01.2020 05:10 6,2 C 5,6 C 5,0 C 99 % 1035,1 hPa 0,0 l/m 0 min 0 min 0 W/m 6,4 km/h (2 Bft) 97,87 %
05.01.2020 05:12 6,2 C 5,6 C 5,0 C 99 % 1035,2 hPa 0,0 l/m 0 min 0 min 0 W/m 0,0 km/h (0 Bft) 97,83 %
05.01.2020 05:14 6,2 C 5,6 C 5,0 C 99 % 1035,2 hPa 0,0 l/m 0 min 0 min 0 W/m 0,0 km/h (0 Bft) 97,67 %
05.01.2020 05:16 6,2 C 5,6 C 5,0 C 99 % 1035,2 hPa 0,0 l/m 0 min 0 min 0 W/m 0,0 km/h (0 Bft) 96,00 %
05.01.2020 05:18 6,2 C 5,6 C 5,0 C 99 % 1035,2 hPa 0,0 l/m 0 min 0 min 0 W/m 0,0 km/h (0 Bft) 97,87 %
05.01.2020 05:20 6,2 C 5,6 C 5,0 C 99 % 1035,2 hPa 0,0 l/m 0 min 0 min 0 W/m 0,0 km/h (0 Bft) 97,87 %
05.01.2020 05:22 6,2 C 5,6 C 5,0 C 99 % 1035,1 hPa 0,0 l/m 0 min 0 min 0 W/m 3,2 km/h (1 Bft) 97,92 %
05.01.2020 05:24 6,2 C 5,6 C 5,0 C 99 % 1035,1 hPa 0,0 l/m 0 min 0 min 0 W/m 0,0 km/h (0 Bft) 97,83 %
05.01.2020 05:26 6,2 C 5,6 C 5,0 C 99 % 1035,1 hPa 0,0 l/m 0 min 0 min 0 W/m 0,0 km/h (0 Bft) 95,74 %
05.01.2020 05:28 6,2 C 5,6 C 5,0 C 99 % 1035,1 hPa 0,0 l/m 0 min 0 min 0 W/m 0,0 km/h (0 Bft) 97,87 %
05.01.2020 05:30 6,2 C 5,6 C 5,0 C 99 % 1035,2 hPa 0,0 l/m 0 min 0 min 0 W/m 0,0 km/h (0 Bft) 96,36 %
05.01.2020 05:32 6,2 C 5,6 C 5,0 C 99 % 1035,2 hPa 0,0 l/m 0 min 0 min 0 W/m 0,0 km/h (0 Bft) 97,87 %
05.01.2020 05:34 6,2 C 5,6 C 5,0 C 99 % 1035,2 hPa 0,0 l/m 0 min 0 min 0 W/m 0,0 km/h (0 Bft) 97,83 %
05.01.2020 05:36 6,2 C 5,6 C 5,0 C 99 % 1035,2 hPa 0,0 l/m 0 min 0 min 0 W/m 3,2 km/h (1 Bft) 97,14 %
05.01.2020 05:38 6,2 C 5,6 C 5,0 C 99 % 1035,2 hPa 0,0 l/m 0 min 0 min 0 W/m 0,0 km/h (0 Bft) 98,00 %
05.01.2020 05:40 6,2 C 5,6 C 5,0 C 100 % 1035,2 hPa 0,0 l/m 0 min 0 min 0 W/m 0,0 km/h (0 Bft) 97,92 %
05.01.2020 05:42 6,2 C 5,6 C 5,0 C 100 % 1035,1 hPa 0,0 l/m 0 min 0 min 0 W/m 6,4 km/h (2 Bft) 97,87 %
05.01.2020 05:44 6,2 C 5,6 C 5,0 C 100 % 1035,1 hPa 0,0 l/m 0 min 0 min 0 W/m 0,0 km/h (0 Bft) 95,74 %
05.01.2020 05:46 6,2 C 5,6 C 5,0 C 100 % 1035,0 hPa 0,0 l/m 0 min 0 min 0 W/m 3,2 km/h (1 Bft) 95,74 %
05.01.2020 05:48 6,2 C 5,6 C 5,0 C 100 % 1035,0 hPa 0,0 l/m 0 min 0 min 0 W/m 3,2 km/h (1 Bft) 97,83 %
05.01.2020 05:50 6,1 C 5,6 C 5,0 C 100 % 1035,0 hPa 0,0 l/m 0 min 0 min 0 W/m 3,2 km/h (1 Bft) 100,00 %
05.01.2020 05:52 6,2 C 5,6 C 5,0 C 100 % 1035,1 hPa 0,0 l/m 0 min 0 min 0 W/m 3,2 km/h (1 Bft) 100,00 %
05.01.2020 05:54 6,1 C 5,6 C 5,0 C 100 % 1035,2 hPa 0,0 l/m 0 min 0 min 0 W/m 0,0 km/h (0 Bft) 96,36 %
05.01.2020 05:56 6,2 C 5,6 C 5,0 C 100 % 1035,1 hPa 0,0 l/m 0 min 0 min 0 W/m 3,2 km/h (1 Bft) 97,87 %
05.01.2020 05:58 6,1 C 5,6 C 5,0 C 100 % 1035,1 hPa 0,0 l/m 0 min 0 min 0 W/m 9,7 km/h (2 Bft) 97,83 %
05.01.2020 06:00 6,1 C 5,6 C 5,0 C 100 % 1035,1 hPa 0,0 l/m 0 min 0 min 0 W/m 0,0 km/h (0 Bft) 97,87 %
05.01.2020 06:02 6,1 C 5,6 C 5,0 C 100 % 1035,1 hPa 0,0 l/m 0 min 0 min 0 W/m 0,0 km/h (0 Bft) 97,87 %
05.01.2020 06:04 6,1 C 5,6 C 5,0 C 100 % 1035,1 hPa 0,0 l/m 0 min 0 min 0 W/m 3,2 km/h (1 Bft) 97,87 %
05.01.2020 06:06 6,1 C 5,6 C 5,0 C 100 % 1035,1 hPa 0,0 l/m 0 min 0 min 0 W/m 0,0 km/h (0 Bft) 97,14 %
05.01.2020 06:08 6,1 C 5,6 C 5,0 C 100 % 1035,1 hPa 0,0 l/m 0 min 0 min 0 W/m 0,0 km/h (0 Bft) 98,00 %
05.01.2020 06:10 6,1 C 5,6 C 5,0 C 100 % 1035,2 hPa 0,0 l/m 0 min 0 min 0 W/m 0,0 km/h (0 Bft) 97,87 %
05.01.2020 06:12 6,1 C 5,6 C 5,0 C 100 % 1035,2 hPa 0,0 l/m 0 min 0 min 0 W/m 9,7 km/h (2 Bft) 95,74 %
05.01.2020 06:14 6,1 C 5,6 C 5,0 C 100 % 1035,2 hPa 0,0 l/m 0 min 0 min 0 W/m 3,2 km/h (1 Bft) 95,74 %
05.01.2020 06:16 6,1 C 5,6 C 5,0 C 99 % 1035,2 hPa 0,0 l/m 0 min 0 min 0 W/m 3,2 km/h (1 Bft) 97,87 %
05.01.2020 06:18 6,1 C 5,6 C 5,0 C 100 % 1035,1 hPa 0,0 l/m 0 min 0 min 0 W/m 3,2 km/h (1 Bft) 95,35 %
05.01.2020 06:20 6,1 C 5,6 C 5,0 C 100 % 1035,2 hPa 0,0 l/m 0 min 0 min 0 W/m 0,0 km/h (0 Bft) 96,00 %
05.01.2020 06:22 6,1 C 5,6 C 5,0 C 99 % 1035,2 hPa 0,0 l/m 0 min 0 min 0 W/m 6,4 km/h (2 Bft) 95,74 %
05.01.2020 06:24 6,1 C 5,6 C 5,0 C 99 % 1035,2 hPa 0,0 l/m 0 min 0 min 0 W/m 0,0 km/h (0 Bft) 95,74 %
05.01.2020 06:26 6,1 C 5,6 C 5,0 C 99 % 1035,3 hPa 0,0 l/m 0 min 0 min 0 W/m 0,0 km/h (0 Bft) 95,35 %
05.01.2020 06:28 6,1 C 5,6 C 5,0 C 99 % 1035,3 hPa 0,0 l/m 0 min 0 min 0 W/m 0,0 km/h (0 Bft) 94,00 %
05.01.2020 06:30 6,1 C 5,6 C 5,0 C 99 % 1035,3 hPa 0,0 l/m 0 min 0 min 0 W/m 0,0 km/h (0 Bft) 95,74 %
05.01.2020 06:32 6,1 C 5,6 C 5,0 C 99 % 1035,3 hPa 0,0 l/m 0 min 0 min 0 W/m 3,2 km/h (1 Bft) 93,62 %
05.01.2020 06:34 6,1 C 5,6 C 5,0 C 99 % 1035,3 hPa 0,0 l/m 0 min 0 min 0 W/m 0,0 km/h (0 Bft) 93,62 %
05.01.2020 06:36 6,1 C 5,6 C 5,0 C 99 % 1035,3 hPa 0,0 l/m 0 min 0 min 0 W/m 0,0 km/h (0 Bft) 93,62 %
05.01.2020 06:38 6,1 C 5,6 C 5,0 C 99 % 1035,3 hPa 0,0 l/m 0 min 0 min 0 W/m 0,0 km/h (0 Bft) 95,74 %
05.01.2020 06:40 6,1 C 5,6 C 5,0 C 99 % 1035,3 hPa 0,0 l/m 0 min 0 min 0 W/m 0,0 km/h (0 Bft) 95,74 %
05.01.2020 06:42 6,1 C 5,6 C 5,0 C 99 % 1035,2 hPa 0,0 l/m 0 min 0 min 0 W/m 3,2 km/h (1 Bft) 95,35 %
05.01.2020 06:44 6,1 C 5,6 C 5,0 C 99 % 1035,3 hPa 0,0 l/m 0 min 0 min 0 W/m 0,0 km/h (0 Bft) 96,08 %
05.01.2020 06:46 6,1 C 5,6 C 5,0 C 99 % 1035,2 hPa 0,0 l/m 0 min 0 min 0 W/m 0,0 km/h (0 Bft) 95,65 %
05.01.2020 06:48 6,1 C 5,6 C 5,0 C 99 % 1035,2 hPa 0,0 l/m 0 min 0 min 0 W/m 3,2 km/h (1 Bft) 95,74 %
05.01.2020 06:50 6,1 C 5,6 C 5,0 C 99 % 1035,2 hPa 0,0 l/m 0 min 0 min 0 W/m 0,0 km/h (0 Bft) 93,62 %
05.01.2020 06:52 6,1 C 5,6 C 5,0 C 99 % 1035,2 hPa 0,0 l/m 0 min 0 min 0 W/m 0,0 km/h (0 Bft) 95,45 %
05.01.2020 06:54 6,1 C 5,6 C 5,0 C 99 % 1035,2 hPa 0,0 l/m 0 min 0 min 0 W/m 3,2 km/h (1 Bft) 98,00 %
05.01.2020 06:56 6,1 C 5,6 C 5,0 C 99 % 1035,2 hPa 0,0 l/m 0 min 0 min 0 W/m 0,0 km/h (0 Bft) 97,83 %
05.01.2020 06:58 6,1 C 5,6 C 5,0 C 99 % 1035,2 hPa 0,0 l/m 0 min 0 min 0 W/m 0,0 km/h (0 Bft) 97,87 %
05.01.2020 07:00 6,0 C 5,6 C 5,0 C 99 % 1035,2 hPa 0,0 l/m 0 min 0 min 0 W/m 0,0 km/h (0 Bft) 95,74 %
05.01.2020 07:02 6,0 C 5,6 C 5,0 C 99 % 1035,2 hPa 0,0 l/m 0 min 0 min 0 W/m 0,0 km/h (0 Bft) 97,87 %
05.01.2020 07:04 6,0 C 5,6 C 5,0 C 99 % 1035,2 hPa 0,0 l/m 0 min 0 min 0 W/m 0,0 km/h (0 Bft) 97,87 %
05.01.2020 07:06 6,0 C 5,6 C 5,0 C 99 % 1035,3 hPa 0,0 l/m 0 min 0 min 0 W/m 0,0 km/h (0 Bft) 97,87 %
05.01.2020 07:08 6,0 C 5,6 C 5,0 C 99 % 1035,3 hPa 0,0 l/m 0 min 0 min 0 W/m 0,0 km/h (0 Bft) 97,83 %
05.01.2020 07:10 6,0 C 5,6 C 5,0 C 99 % 1035,3 hPa 0,0 l/m 0 min 0 min 0 W/m 0,0 km/h (0 Bft) 97,87 %
05.01.2020 07:12 6,0 C 5,6 C 5,0 C 99 % 1035,3 hPa 0,0 l/m 0 min 0 min 0 W/m 6,4 km/h (2 Bft) 97,73 %
05.01.2020 07:14 6,0 C 5,6 C 5,0 C 99 % 1035,3 hPa 0,0 l/m 0 min 0 min 0 W/m 0,0 km/h (0 Bft) 100,00 %
05.01.2020 07:16 6,0 C 5,6 C 5,0 C 99 % 1035,3 hPa 0,0 l/m 0 min 0 min 0 W/m 0,0 km/h (0 Bft) 98,11 %
05.01.2020 07:18 6,0 C 5,6 C 5,0 C 99 % 1035,3 hPa 0,0 l/m 0 min 0 min 0 W/m 0,0 km/h (0 Bft) 100,00 %
05.01.2020 07:20 6,0 C 5,6 C 5,0 C 99 % 1035,4 hPa 0,0 l/m 0 min 0 min 0 W/m 0,0 km/h (0 Bft) 100,00 %
05.01.2020 07:22 6,0 C 5,6 C 5,0 C 99 % 1035,3 hPa 0,0 l/m 0 min 0 min 0 W/m 0,0 km/h (0 Bft) 97,87 %
05.01.2020 07:24 6,0 C 5,6 C 4,4 C 99 % 1035,3 hPa 0,0 l/m 0 min 0 min 0 W/m 0,0 km/h (0 Bft) 100,00 %
05.01.2020 07:26 6,0 C 5,6 C 4,4 C 99 % 1035,4 hPa 0,0 l/m 0 min 0 min 0 W/m 0,0 km/h (0 Bft) 100,00 %
05.01.2020 07:28 5,9 C 5,6 C 4,4 C 99 % 1035,4 hPa 0,0 l/m 0 min 0 min 0 W/m 0,0 km/h (0 Bft) 100,00 %
05.01.2020 07:30 5,9 C 5,6 C 4,4 C 99 % 1035,4 hPa 0,0 l/m 0 min 0 min 0 W/m 0,0 km/h (0 Bft) 100,00 %
05.01.2020 07:32 5,9 C 5,6 C 4,4 C 99 % 1035,4 hPa 0,0 l/m 0 min 0 min 0 W/m 0,0 km/h (0 Bft) 96,15 %
05.01.2020 07:34 5,9 C 5,6 C 4,4 C 99 % 1035,4 hPa 0,0 l/m 0 min 0 min 0 W/m 0,0 km/h (0 Bft) 100,00 %
05.01.2020 07:36 5,9 C 5,6 C 4,4 C 99 % 1035,4 hPa 0,0 l/m 0 min 0 min 0 W/m 0,0 km/h (0 Bft) 95,74 %
05.01.2020 07:38 5,9 C 5,6 C 4,4 C 99 % 1035,3 hPa 0,0 l/m 0 min 0 min 0 W/m 0,0 km/h (0 Bft) 97,87 %
05.01.2020 07:40 5,9 C 5,6 C 4,4 C 99 % 1035,3 hPa 0,0 l/m 0 min 0 min 0 W/m 0,0 km/h (0 Bft) 97,87 %
05.01.2020 07:42 5,9 C 5,6 C 4,4 C 99 % 1035,3 hPa 0,0 l/m 0 min 0 min 0 W/m 0,0 km/h (0 Bft) 97,83 %
05.01.2020 07:44 5,9 C 5,6 C 4,4 C 99 % 1035,3 hPa 0,0 l/m 0 min 0 min 0 W/m 0,0 km/h (0 Bft) 97,56 %
05.01.2020 07:46 5,9 C 5,6 C 4,4 C 99 % 1035,4 hPa 0,0 l/m 0 min 0 min 0 W/m 0,0 km/h (0 Bft) 98,11 %
05.01.2020 07:48 5,9 C 5,6 C 4,4 C 99 % 1035,4 hPa 0,0 l/m 0 min 0 min 0 W/m 0,0 km/h (0 Bft) 95,74 %
05.01.2020 07:50 5,9 C 5,6 C 4,4 C 99 % 1035,4 hPa 0,0 l/m 0 min 0 min 0 W/m 0,0 km/h (0 Bft) 97,87 %
05.01.2020 07:52 5,9 C 5,6 C 4,4 C 99 % 1035,3 hPa 0,0 l/m 0 min 0 min 0 W/m 0,0 km/h (0 Bft) 95,74 %
05.01.2020 07:54 5,9 C 5,6 C 4,4 C 99 % 1035,4 hPa 0,0 l/m 0 min 0 min 0 W/m 0,0 km/h (0 Bft) 97,83 %
05.01.2020 07:56 5,9 C 5,6 C 4,4 C 99 % 1035,4 hPa 0,0 l/m 0 min 0 min 0 W/m 0,0 km/h (0 Bft) 97,87 %
05.01.2020 07:58 5,9 C 5,6 C 4,4 C 99 % 1035,4 hPa 0,0 l/m 0 min 0 min 0 W/m 0,0 km/h (0 Bft) 95,74 %
05.01.2020 08:00 5,9 C 5,6 C 4,4 C 99 % 1035,3 hPa 0,0 l/m 0 min 0 min 0 W/m 0,0 km/h (0 Bft) 97,87 %
05.01.2020 08:02 5,9 C 5,6 C 4,4 C 99 % 1035,3 hPa 0,0 l/m 0 min 0 min 0 W/m 0,0 km/h (0 Bft) 95,74 %
05.01.2020 08:04 5,9 C 5,6 C 4,4 C 99 % 1035,3 hPa 0,0 l/m 0 min 0 min 0 W/m 0,0 km/h (0 Bft) 97,83 %
05.01.2020 08:06 5,9 C 5,6 C 4,4 C 99 % 1035,3 hPa 0,0 l/m 0 min 0 min 0 W/m 0,0 km/h (0 Bft) 97,83 %
05.01.2020 08:08 5,9 C 5,6 C 4,4 C 99 % 1035,3 hPa 0,0 l/m 0 min 0 min 0 W/m 0,0 km/h (0 Bft) 97,87 %
05.01.2020 08:10 5,9 C 5,6 C 4,4 C 99 % 1035,4 hPa 0,0 l/m 0 min 0 min 0 W/m 0,0 km/h (0 Bft) 97,87 %
05.01.2020 08:12 5,9 C 5,6 C 4,4 C 99 % 1035,4 hPa 0,0 l/m 0 min 0 min 0 W/m 0,0 km/h (0 Bft) 97,87 %
05.01.2020 08:14 5,9 C 5,6 C 4,4 C 99 % 1035,3 hPa 0,0 l/m 0 min 0 min 0 W/m 0,0 km/h (0 Bft) 97,87 %
05.01.2020 08:16 5,9 C 5,6 C 4,4 C 99 % 1035,4 hPa 0,0 l/m 0 min 0 min 0 W/m 0,0 km/h (0 Bft) 97,83 %
05.01.2020 08:18 5,9 C 5,6 C 4,4 C 99 % 1035,3 hPa 0,0 l/m 0 min 0 min 0 W/m 0,0 km/h (0 Bft) 97,87 %
05.01.2020 08:20 5,9 C 5,6 C 4,4 C 99 % 1035,3 hPa 0,0 l/m 0 min 0 min 0 W/m 0,0 km/h (0 Bft) 97,87 %
05.01.2020 08:22 5,9 C 5,6 C 4,4 C 99 % 1035,3 hPa 0,0 l/m 0 min 0 min 0 W/m 0,0 km/h (0 Bft) 93,62 %
05.01.2020 08:24 5,9 C 5,6 C 4,4 C 99 % 1035,3 hPa 0,0 l/m 0 min 0 min 0 W/m 0,0 km/h (0 Bft) 100,00 %
05.01.2020 08:26 5,9 C 5,6 C 4,4 C 99 % 1035,3 hPa 0,0 l/m 0 min 0 min 0 W/m 0,0 km/h (0 Bft) 97,87 %
05.01.2020 08:28 5,8 C 5,6 C 4,4 C 99 % 1035,3 hPa 0,0 l/m 0 min 0 min 0 W/m 0,0 km/h (0 Bft) 97,83 %
05.01.2020 08:30 5,8 C 5,6 C 4,4 C 99 % 1035,3 hPa 0,0 l/m 0 min 0 min 0 W/m 0,0 km/h (0 Bft) 100,00 %
05.01.2020 08:32 5,9 C 5,6 C 4,4 C 99 % 1035,4 hPa 0,0 l/m 0 min 0 min 0 W/m 0,0 km/h (0 Bft) 100,00 %
05.01.2020 08:34 5,8 C 5,6 C 4,4 C 99 % 1035,4 hPa 0,0 l/m 0 min 0 min 0 W/m 0,0 km/h (0 Bft) 100,00 %
05.01.2020 08:36 5,8 C 5,6 C 4,4 C 99 % 1035,4 hPa 0,0 l/m 0 min 0 min 0 W/m 3,2 km/h (1 Bft) 100,00 %
05.01.2020 08:38 5,8 C 5,6 C 4,4 C 99 % 1035,4 hPa 0,0 l/m 0 min 0 min 0 W/m 0,0 km/h (0 Bft) 97,87 %
05.01.2020 08:40 5,8 C 5,6 C 4,4 C 99 % 1035,4 hPa 0,0 l/m 0 min 0 min 0 W/m 0,0 km/h (0 Bft) 100,00 %
05.01.2020 08:42 5,8 C 5,6 C 4,4 C 99 % 1035,4 hPa 0,0 l/m 0 min 0 min 0 W/m 0,0 km/h (0 Bft) 97,87 %
05.01.2020 08:44 5,8 C 5,6 C 4,4 C 99 % 1035,4 hPa 0,0 l/m 0 min 0 min 0 W/m 3,2 km/h (1 Bft) 97,87 %
05.01.2020 08:46 5,8 C 5,6 C 4,4 C 99 % 1035,4 hPa 0,0 l/m 0 min 0 min 0 W/m 3,2 km/h (1 Bft) 100,00 %
05.01.2020 08:48 5,8 C 5,6 C 4,4 C 99 % 1035,4 hPa 0,0 l/m 0 min 0 min 0 W/m 0,0 km/h (0 Bft) 97,87 %
05.01.2020 08:50 5,8 C 5,6 C 4,4 C 99 % 1035,5 hPa 0,0 l/m 0 min 0 min 0 W/m 0,0 km/h (0 Bft) 100,00 %
05.01.2020 08:52 5,8 C 5,6 C 4,4 C 99 % 1035,5 hPa 0,0 l/m 0 min 0 min 2 W/m 0,0 km/h (0 Bft) 97,83 %
05.01.2020 08:54 5,8 C 5,6 C 4,4 C 99 % 1035,5 hPa 0,0 l/m 0 min 0 min 5 W/m 0,0 km/h (0 Bft) 100,00 %
05.01.2020 08:56 5,8 C 5,6 C 4,4 C 99 % 1035,5 hPa 0,0 l/m 0 min 0 min 5 W/m 0,0 km/h (0 Bft) 97,87 %
05.01.2020 08:58 5,8 C 5,6 C 4,4 C 99 % 1035,5 hPa 0,0 l/m 0 min 0 min 5 W/m 0,0 km/h (0 Bft) 97,87 %
05.01.2020 09:00 5,8 C 5,6 C 5,0 C 99 % 1035,5 hPa 0,0 l/m 0 min 0 min 5 W/m 0,0 km/h (0 Bft) 97,87 %
05.01.2020 09:02 5,8 C 5,6 C 5,0 C 99 % 1035,5 hPa 0,0 l/m 0 min 0 min 5 W/m 0,0 km/h (0 Bft) 97,83 %
05.01.2020 09:04 5,8 C 5,6 C 5,0 C 99 % 1035,5 hPa 0,0 l/m 0 min 0 min 7 W/m 0,0 km/h (0 Bft) 97,87 %
05.01.2020 09:06 5,8 C 5,6 C 5,0 C 99 % 1035,5 hPa 0,0 l/m 0 min 0 min 7 W/m 0,0 km/h (0 Bft) 97,87 %
05.01.2020 09:08 5,8 C 5,6 C 5,0 C 99 % 1035,6 hPa 0,0 l/m 0 min 0 min 7 W/m 0,0 km/h (0 Bft) 95,74 %
05.01.2020 09:10 5,8 C 5,6 C 5,0 C 99 % 1035,6 hPa 0,0 l/m 0 min 0 min 8 W/m 6,4 km/h (2 Bft) 97,87 %
05.01.2020 09:12 5,8 C 5,6 C 5,0 C 99 % 1035,6 hPa 0,0 l/m 0 min 0 min 10 W/m 0,0 km/h (0 Bft) 97,87 %
05.01.2020 09:14 5,8 C 5,6 C 5,0 C 99 % 1035,7 hPa 0,0 l/m 0 min 0 min 11 W/m 0,0 km/h (0 Bft) 97,83 %
05.01.2020 09:16 5,8 C 5,6 C 5,0 C 99 % 1035,7 hPa 0,0 l/m 0 min 0 min 11 W/m 0,0 km/h (0 Bft) 97,87 %
05.01.2020 09:18 5,9 C 5,6 C 5,0 C 99 % 1035,7 hPa 0,0 l/m 0 min 0 min 12 W/m 0,0 km/h (0 Bft) 93,62 %
05.01.2020 09:20 5,9 C 5,6 C 5,0 C 99 % 1035,7 hPa 0,0 l/m 0 min 0 min 12 W/m 0,0 km/h (0 Bft) 97,87 %
05.01.2020 09:22 5,9 C 5,6 C 5,0 C 99 % 1035,6 hPa 0,0 l/m 0 min 0 min 13 W/m 0,0 km/h (0 Bft) 97,87 %
05.01.2020 09:24 5,9 C 5,6 C 5,0 C 99 % 1035,6 hPa 0,0 l/m 0 min 0 min 14 W/m 6,4 km/h (2 Bft) 95,74 %
05.01.2020 09:26 5,9 C 5,6 C 5,0 C 99 % 1035,6 hPa 0,0 l/m 0 min 0 min 16 W/m 3,2 km/h (1 Bft) 97,83 %
05.01.2020 09:28 5,9 C 5,6 C 5,0 C 99 % 1035,6 hPa 0,0 l/m 0 min 0 min 15 W/m 0,0 km/h (0 Bft) 97,87 %
05.01.2020 09:30 5,9 C 5,6 C 5,0 C 99 % 1035,6 hPa 0,0 l/m 0 min 0 min 15 W/m 3,2 km/h (1 Bft) 68,09 %
05.01.2020 09:32 5,9 C 5,6 C 5,0 C 99 % 1035,6 hPa 0,0 l/m 0 min 0 min 16 W/m 3,2 km/h (1 Bft) 82,22 %
05.01.2020 09:34 5,9 C 5,6 C 5,0 C 99 % 1035,7 hPa 0,0 l/m 0 min 0 min 16 W/m 6,4 km/h (2 Bft) 95,74 %
05.01.2020 09:36 5,9 C 5,6 C 5,0 C 99 % 1035,7 hPa 0,0 l/m 0 min 0 min 16 W/m 0,0 km/h (0 Bft) 95,74 %
05.01.2020 09:38 5,9 C 5,6 C 5,0 C 99 % 1035,7 hPa 0,0 l/m 0 min 0 min 18 W/m 0,0 km/h (0 Bft) 95,65 %
05.01.2020 09:40 5,9 C 5,6 C 5,0 C 99 % 1035,6 hPa 0,0 l/m 0 min 0 min 18 W/m 0,0 km/h (0 Bft) 93,62 %
05.01.2020 09:42 5,9 C 5,6 C 5,0 C 99 % 1035,6 hPa 0,0 l/m 0 min 0 min 19 W/m 3,2 km/h (1 Bft) 95,74 %
05.01.2020 09:44 5,9 C 5,6 C 5,0 C 99 % 1035,6 hPa 0,0 l/m 0 min 0 min 20 W/m 3,2 km/h (1 Bft) 97,87 %
05.01.2020 09:46 6,0 C 5,6 C 5,0 C 99 % 1035,6 hPa 0,0 l/m 0 min 0 min 21 W/m 0,0 km/h (0 Bft) 97,87 %
05.01.2020 09:48 6,0 C 5,6 C 5,0 C 99 % 1035,7 hPa 0,0 l/m 0 min 0 min 21 W/m 0,0 km/h (0 Bft) 100,00 %
05.01.2020 09:50 6,0 C 5,6 C 5,0 C 99 % 1035,7 hPa 0,0 l/m 0 min 0 min 24 W/m 6,4 km/h (2 Bft) 97,83 %
05.01.2020 09:52 6,0 C 5,6 C 5,0 C 99 % 1035,7 hPa 0,0 l/m 0 min 0 min 25 W/m 3,2 km/h (1 Bft) 97,87 %
05.01.2020 09:54 6,0 C 5,6 C 5,0 C 99 % 1035,7 hPa 0,0 l/m 0 min 0 min 25 W/m 0,0 km/h (0 Bft) 97,87 %
05.01.2020 09:56 6,0 C 5,6 C 5,0 C 99 % 1035,7 hPa 0,0 l/m 0 min 0 min 26 W/m 0,0 km/h (0 Bft) 95,74 %
05.01.2020 09:58 6,1 C 5,6 C 5,0 C 99 % 1035,7 hPa 0,0 l/m 0 min 0 min 30 W/m 6,4 km/h (2 Bft) 95,74 %
05.01.2020 10:00 6,0 C 6,1 C 5,0 C 99 % 1035,7 hPa 0,0 l/m 0 min 0 min 31 W/m 3,2 km/h (1 Bft) 97,83 %
05.01.2020 10:02 6,1 C 6,1 C 5,0 C 99 % 1035,7 hPa 0,0 l/m 0 min 0 min 33 W/m 0,0 km/h (0 Bft) 93,62 %
05.01.2020 10:04 6,1 C 6,1 C 5,0 C 99 % 1035,7 hPa 0,0 l/m 0 min 0 min 38 W/m 0,0 km/h (0 Bft) 97,87 %
05.01.2020 10:06 6,1 C 6,1 C 5,0 C 99 % 1035,6 hPa 0,0 l/m 0 min 0 min 44 W/m 0,0 km/h (0 Bft) 95,74 %
05.01.2020 10:08 6,1 C 6,1 C 5,0 C 99 % 1035,7 hPa 0,0 l/m 0 min 0 min 50 W/m 3,2 km/h (1 Bft) 95,74 %
05.01.2020 10:10 6,1 C 6,1 C 5,6 C 99 % 1035,6 hPa 0,0 l/m 0 min 0 min 54 W/m 3,2 km/h (1 Bft) 93,62 %
05.01.2020 10:12 6,1 C 6,1 C 5,6 C 99 % 1035,6 hPa 0,0 l/m 0 min 0 min 55 W/m 3,2 km/h (1 Bft) 95,74 %
05.01.2020 10:14 6,1 C 6,1 C 5,6 C 99 % 1035,6 hPa 0,0 l/m 0 min 0 min 55 W/m 0,0 km/h (0 Bft) 95,65 %
05.01.2020 10:16 6,1 C 6,1 C 5,6 C 99 % 1035,6 hPa 0,0 l/m 0 min 0 min 55 W/m 0,0 km/h (0 Bft) 95,74 %
05.01.2020 10:18 6,2 C 6,1 C 5,6 C 99 % 1035,6 hPa 0,0 l/m 0 min 0 min 55 W/m 0,0 km/h (0 Bft) 95,74 %
05.01.2020 10:20 6,2 C 6,1 C 5,6 C 99 % 1035,6 hPa 0,0 l/m 0 min 0 min 52 W/m 0,0 km/h (0 Bft) 95,74 %
05.01.2020 10:22 6,2 C 6,1 C 5,6 C 99 % 1035,6 hPa 0,0 l/m 0 min 0 min 43 W/m 0,0 km/h (0 Bft) 93,62 %
05.01.2020 10:24 6,2 C 6,1 C 5,6 C 99 % 1035,7 hPa 0,0 l/m 0 min 0 min 42 W/m 12,9 km/h (3 Bft) 93,48 %
05.01.2020 10:26 6,2 C 6,1 C 5,6 C 99 % 1035,7 hPa 0,0 l/m 0 min 0 min 41 W/m 6,4 km/h (2 Bft) 93,62 %
05.01.2020 10:28 6,2 C 6,1 C 5,6 C 99 % 1035,7 hPa 0,0 l/m 0 min 0 min 40 W/m 6,4 km/h (2 Bft) 97,87 %
05.01.2020 10:30 6,2 C 6,1 C 5,6 C 99 % 1035,8 hPa 0,0 l/m 0 min 0 min 40 W/m 0,0 km/h (0 Bft) 97,87 %
05.01.2020 10:32 6,2 C 6,1 C 5,6 C 99 % 1035,8 hPa 0,0 l/m 0 min 0 min 40 W/m 0,0 km/h (0 Bft) 97,87 %
05.01.2020 10:34 6,2 C 6,1 C 5,6 C 99 % 1035,8 hPa 0,0 l/m 0 min 0 min 40 W/m 0,0 km/h (0 Bft) 97,87 %
05.01.2020 10:36 6,2 C 6,1 C 5,6 C 99 % 1035,8 hPa 0,0 l/m 0 min 0 min 39 W/m 3,2 km/h (1 Bft) 95,65 %
05.01.2020 10:38 6,3 C 6,1 C 5,6 C 99 % 1035,9 hPa 0,0 l/m 0 min 0 min 35 W/m 3,2 km/h (1 Bft) 97,87 %
05.01.2020 10:40 6,3 C 6,1 C 5,6 C 99 % 1035,9 hPa 0,0 l/m 0 min 0 min 33 W/m 0,0 km/h (0 Bft) 97,56 %
05.01.2020 10:42 6,3 C 6,1 C 5,6 C 99 % 1035,9 hPa 0,0 l/m 0 min 0 min 32 W/m 0,0 km/h (0 Bft) 97,87 %
05.01.2020 10:44 6,3 C 6,1 C 5,6 C 99 % 1035,9 hPa 0,0 l/m 0 min 0 min 32 W/m 0,0 km/h (0 Bft) 93,62 %
05.01.2020 10:46 6,3 C 6,1 C 5,6 C 99 % 1035,9 hPa 0,0 l/m 0 min 0 min 32 W/m 3,2 km/h (1 Bft) 100,00 %
05.01.2020 10:48 6,3 C 6,1 C 5,6 C 99 % 1035,9 hPa 0,0 l/m 0 min 0 min 32 W/m 0,0 km/h (0 Bft) 100,00 %
05.01.2020 10:50 6,3 C 6,1 C 5,6 C 99 % 1035,9 hPa 0,0 l/m 0 min 0 min 33 W/m 0,0 km/h (0 Bft) 100,00 %
05.01.2020 10:52 6,3 C 6,1 C 5,6 C 99 % 1036,0 hPa 0,0 l/m 0 min 0 min 33 W/m 3,2 km/h (1 Bft) 93,62 %
05.01.2020 10:54 6,3 C 6,1 C 5,6 C 99 % 1036,0 hPa 0,0 l/m 0 min 0 min 35 W/m 0,0 km/h (0 Bft) 100,00 %
05.01.2020 10:56 6,3 C 6,1 C 5,6 C 99 % 1036,0 hPa 0,0 l/m 0 min 0 min 37 W/m 0,0 km/h (0 Bft) 100,00 %
05.01.2020 10:58 6,3 C 6,1 C 5,6 C 99 % 1035,9 hPa 0,0 l/m 0 min 0 min 39 W/m 0,0 km/h (0 Bft) 97,83 %
05.01.2020 11:00 6,3 C 6,1 C 5,6 C 99 % 1036,0 hPa 0,0 l/m 0 min 0 min 40 W/m 0,0 km/h (0 Bft) 97,87 %
05.01.2020 11:02 6,3 C 6,1 C 5,6 C 99 % 1036,0 hPa 0,0 l/m 0 min 0 min 40 W/m 6,4 km/h (2 Bft) 100,00 %
05.01.2020 11:04 6,3 C 6,1 C 5,6 C 99 % 1036,0 hPa 0,0 l/m 0 min 0 min 38 W/m 0,0 km/h (0 Bft) 100,00 %
05.01.2020 11:06 6,3 C 6,1 C 5,6 C 99 % 1035,9 hPa 0,0 l/m 0 min 0 min 36 W/m 0,0 km/h (0 Bft) 95,74 %
05.01.2020 11:08 6,3 C 6,1 C 5,6 C 99 % 1035,9 hPa 0,0 l/m 0 min 0 min 35 W/m 0,0 km/h (0 Bft) 100,00 %
05.01.2020 11:10 6,3 C 6,1 C 5,6 C 99 % 1035,9 hPa 0,0 l/m 0 min 0 min 36 W/m 0,0 km/h (0 Bft) 100,00 %
05.01.2020 11:12 6,3 C 6,1 C 5,6 C 99 % 1035,9 hPa 0,0 l/m 0 min 0 min 37 W/m 0,0 km/h (0 Bft) 100,00 %
05.01.2020 11:14 6,4 C 6,1 C 5,6 C 99 % 1035,9 hPa 0,0 l/m 0 min 0 min 38 W/m 0,0 km/h (0 Bft) 100,00 %
05.01.2020 11:16 6,4 C 6,1 C 5,6 C 99 % 1035,9 hPa 0,0 l/m 0 min 0 min 39 W/m 0,0 km/h (0 Bft) 100,00 %
05.01.2020 11:18 6,4 C 6,1 C 5,6 C 99 % 1036,0 hPa 0,0 l/m 0 min 0 min 39 W/m 3,2 km/h (1 Bft) 100,00 %
05.01.2020 11:20 6,4 C 6,1 C 5,6 C 98 % 1035,9 hPa 0,0 l/m 0 min 0 min 41 W/m 3,2 km/h (1 Bft) 100,00 %
05.01.2020 11:22 6,4 C 6,1 C 5,6 C 98 % 1035,9 hPa 0,0 l/m 0 min 0 min 43 W/m 0,0 km/h (0 Bft) 100,00 %
05.01.2020 11:24 6,4 C 6,1 C 5,6 C 98 % 1035,9 hPa 0,0 l/m 0 min 0 min 44 W/m 0,0 km/h (0 Bft) 100,00 %
05.01.2020 11:26 6,4 C 6,1 C 5,6 C 98 % 1035,9 hPa 0,0 l/m 0 min 0 min 44 W/m 0,0 km/h (0 Bft) 100,00 %
05.01.2020 11:28 6,4 C 6,1 C 5,6 C 98 % 1035,9 hPa 0,0 l/m 0 min 0 min 44 W/m 0,0 km/h (0 Bft) 100,00 %
05.01.2020 11:30 6,4 C 6,1 C 5,6 C 98 % 1035,9 hPa 0,0 l/m 0 min 0 min 46 W/m 0,0 km/h (0 Bft) 95,74 %
05.01.2020 11:32 6,4 C 6,7 C 5,6 C 98 % 1035,8 hPa 0,0 l/m 0 min 0 min 47 W/m 0,0 km/h (0 Bft) 100,00 %
05.01.2020 11:34 6,4 C 6,7 C 5,6 C 98 % 1035,9 hPa 0,0 l/m 0 min 0 min 46 W/m 0,0 km/h (0 Bft) 100,00 %
05.01.2020 11:36 6,4 C 6,1 C 5,6 C 98 % 1035,9 hPa 0,0 l/m 0 min 0 min 44 W/m 0,0 km/h (0 Bft) 100,00 %
05.01.2020 11:38 6,4 C 6,7 C 5,6 C 98 % 1035,9 hPa 0,0 l/m 0 min 0 min 44 W/m 0,0 km/h (0 Bft) 100,00 %
05.01.2020 11:40 6,5 C 6,7 C 5,6 C 98 % 1035,9 hPa 0,0 l/m 0 min 0 min 44 W/m 0,0 km/h (0 Bft) 100,00 %
05.01.2020 11:42 6,5 C 6,7 C 5,6 C 98 % 1035,8 hPa 0,0 l/m 0 min 0 min 46 W/m 0,0 km/h (0 Bft) 100,00 %
05.01.2020 11:44 6,5 C 6,7 C 5,6 C 98 % 1035,8 hPa 0,0 l/m 0 min 0 min 46 W/m 0,0 km/h (0 Bft) 97,87 %
05.01.2020 11:46 6,5 C 6,7 C 5,6 C 98 % 1035,8 hPa 0,0 l/m 0 min 0 min 47 W/m 3,2 km/h (1 Bft) 97,83 %
05.01.2020 11:48 6,5 C 6,7 C 6,1 C 98 % 1035,8 hPa 0,0 l/m 0 min 0 min 48 W/m 0,0 km/h (0 Bft) 97,87 %
05.01.2020 11:50 6,5 C 6,7 C 6,1 C 98 % 1035,8 hPa 0,0 l/m 0 min 0 min 49 W/m 0,0 km/h (0 Bft) 100,00 %
05.01.2020 11:52 6,5 C 6,7 C 6,1 C 98 % 1035,8 hPa 0,0 l/m 0 min 0 min 51 W/m 0,0 km/h (0 Bft) 100,00 %
05.01.2020 11:54 6,5 C 6,7 C 6,1 C 98 % 1035,7 hPa 0,0 l/m 0 min 0 min 53 W/m 0,0 km/h (0 Bft) 95,74 %
05.01.2020 11:56 6,5 C 6,7 C 6,1 C 98 % 1035,7 hPa 0,0 l/m 0 min 0 min 55 W/m 0,0 km/h (0 Bft) 100,00 %
05.01.2020 11:58 6,5 C 6,7 C 6,1 C 98 % 1035,7 hPa 0,0 l/m 0 min 0 min 56 W/m 0,0 km/h (0 Bft) 100,00 %
05.01.2020 12:00 6,5 C 6,7 C 6,1 C 98 % 1035,7 hPa 0,0 l/m 0 min 0 min 54 W/m 0,0 km/h (0 Bft) 100,00 %
05.01.2020 12:02 6,6 C 6,7 C 6,1 C 98 % 1035,6 hPa 0,0 l/m 0 min 0 min 55 W/m 0,0 km/h (0 Bft) 95,74 %
05.01.2020 12:04 6,6 C 6,7 C 6,1 C 98 % 1035,6 hPa 0,0 l/m 0 min 0 min 58 W/m 0,0 km/h (0 Bft) 97,56 %
05.01.2020 12:06 6,6 C 6,7 C 6,1 C 98 % 1035,7 hPa 0,0 l/m 0 min 0 min 57 W/m 0,0 km/h (0 Bft) 95,74 %
05.01.2020 12:08 6,6 C 6,7 C 6,1 C 98 % 1035,6 hPa 0,0 l/m 0 min 0 min 54 W/m 0,0 km/h (0 Bft) 95,74 %
05.01.2020 12:10 6,6 C 6,7 C 6,1 C 97 % 1035,7 hPa 0,0 l/m 0 min 0 min 48 W/m 0,0 km/h (0 Bft) 97,83 %
05.01.2020 12:12 6,6 C 6,7 C 6,1 C 97 % 1035,7 hPa 0,0 l/m 0 min 0 min 44 W/m 0,0 km/h (0 Bft) 97,87 %
05.01.2020 12:14 6,6 C 6,7 C 6,1 C 97 % 1035,6 hPa 0,0 l/m 0 min 0 min 40 W/m 0,0 km/h (0 Bft) 98,11 %
05.01.2020 12:16 6,6 C 6,7 C 6,1 C 97 % 1035,6 hPa 0,0 l/m 0 min 0 min 39 W/m 0,0 km/h (0 Bft) 97,87 %
05.01.2020 12:18 6,6 C 6,7 C 6,1 C 97 % 1035,7 hPa 0,0 l/m 0 min 0 min 40 W/m 0,0 km/h (0 Bft) 97,87 %
05.01.2020 12:20 6,6 C 6,7 C 6,1 C 97 % 1035,6 hPa 0,0 l/m 0 min 0 min 51 W/m 0,0 km/h (0 Bft) 93,48 %
05.01.2020 12:22 6,6 C 6,7 C 6,1 C 97 % 1035,5 hPa 0,0 l/m 0 min 0 min 67 W/m 0,0 km/h (0 Bft) 97,87 %
05.01.2020 12:24 6,6 C 6,7 C 6,1 C 97 % 1035,6 hPa 0,0 l/m 0 min 0 min 74 W/m 0,0 km/h (0 Bft) 95,74 %
05.01.2020 12:26 6,6 C 6,7 C 6,1 C 97 % 1035,5 hPa 0,0 l/m 0 min 0 min 76 W/m 0,0 km/h (0 Bft) 95,74 %
05.01.2020 12:28 6,6 C 6,7 C 6,1 C 97 % 1035,5 hPa 0,0 l/m 0 min 0 min 76 W/m 0,0 km/h (0 Bft) 95,74 %
05.01.2020 12:30 6,6 C 7,2 C 6,1 C 97 % 1035,5 hPa 0,0 l/m 0 min 0 min 75 W/m 0,0 km/h (0 Bft) 95,74 %
05.01.2020 12:32 6,7 C 7,2 C 6,1 C 97 % 1035,5 hPa 0,0 l/m 0 min 0 min 73 W/m 0,0 km/h (0 Bft) 95,65 %
05.01.2020 12:34 6,7 C 7,2 C 6,1 C 97 % 1035,5 hPa 0,0 l/m 0 min 0 min 69 W/m 0,0 km/h (0 Bft) 91,49 %
05.01.2020 12:36 6,7 C 6,7 C 6,1 C 97 % 1035,5 hPa 0,0 l/m 0 min 0 min 67 W/m 0,0 km/h (0 Bft) 93,62 %
05.01.2020 12:38 6,7 C 6,7 C 6,1 C 96 % 1035,5 hPa 0,0 l/m 0 min 0 min 65 W/m 0,0 km/h (0 Bft) 93,62 %
05.01.2020 12:40 6,7 C 6,7 C 6,1 C 96 % 1035,4 hPa 0,0 l/m 0 min 0 min 65 W/m 0,0 km/h (0 Bft) 93,62 %
05.01.2020 12:42 6,7 C 6,7 C 6,1 C 96 % 1035,4 hPa 0,0 l/m 0 min 0 min 63 W/m 3,2 km/h (1 Bft) 91,49 %
05.01.2020 12:44 6,7 C 6,7 C 6,1 C 96 % 1035,4 hPa 0,0 l/m 0 min 0 min 61 W/m 0,0 km/h (0 Bft) 93,48 %
05.01.2020 12:46 6,8 C 6,7 C 6,1 C 96 % 1035,3 hPa 0,0 l/m 0 min 0 min 60 W/m 0,0 km/h (0 Bft) 95,74 %
05.01.2020 12:48 6,8 C 6,7 C 6,1 C 96 % 1035,3 hPa 0,0 l/m 0 min 0 min 57 W/m 0,0 km/h (0 Bft) 93,62 %
05.01.2020 12:50 6,8 C 6,7 C 6,1 C 96 % 1035,3 hPa 0,0 l/m 0 min 0 min 54 W/m 0,0 km/h (0 Bft) 93,62 %
05.01.2020 12:52 6,8 C 6,7 C 6,1 C 95 % 1035,3 hPa 0,0 l/m 0 min 0 min 53 W/m 0,0 km/h (0 Bft) 93,62 %
05.01.2020 12:54 6,8 C 6,7 C 6,1 C 95 % 1035,3 hPa 0,0 l/m 0 min 0 min 54 W/m 0,0 km/h (0 Bft) 93,62 %
05.01.2020 12:56 6,8 C 6,7 C 6,1 C 95 % 1035,3 hPa 0,0 l/m 0 min 0 min 54 W/m 0,0 km/h (0 Bft) 89,13 %
05.01.2020 12:58 6,8 C 6,7 C 6,1 C 95 % 1035,2 hPa 0,0 l/m 0 min 0 min 54 W/m 3,2 km/h (1 Bft) 93,62 %
05.01.2020 13:00 6,8 C 6,7 C 6,1 C 95 % 1035,2 hPa 0,0 l/m 0 min 0 min 54 W/m 6,4 km/h (2 Bft) 93,62 %
05.01.2020 13:02 6,9 C 6,7 C 6,1 C 95 % 1035,2 hPa 0,0 l/m 0 min 0 min 53 W/m 3,2 km/h (1 Bft) 93,62 %
05.01.2020 13:04 6,9 C 6,7 C 6,1 C 94 % 1035,2 hPa 0,0 l/m 0 min 0 min 53 W/m 0,0 km/h (0 Bft) 93,62 %
05.01.2020 13:06 6,9 C 7,2 C 6,7 C 94 % 1035,1 hPa 0,0 l/m 0 min 0 min 53 W/m 0,0 km/h (0 Bft) 95,74 %
05.01.2020 13:08 6,9 C 7,2 C 6,7 C 94 % 1035,0 hPa 0,0 l/m 0 min 0 min 53 W/m 0,0 km/h (0 Bft) 97,83 %
05.01.2020 13:10 6,9 C 7,2 C 6,7 C 94 % 1035,0 hPa 0,0 l/m 0 min 0 min 52 W/m 19,3 km/h (3 Bft) 97,87 %
05.01.2020 13:12 6,9 C 7,2 C 6,7 C 94 % 1035,0 hPa 0,0 l/m 0 min 0 min 53 W/m 0,0 km/h (0 Bft) 95,74 %
05.01.2020 13:14 6,9 C 6,7 C 6,7 C 93 % 1035,0 hPa 0,0 l/m 0 min 0 min 51 W/m 3,2 km/h (1 Bft) 97,87 %
05.01.2020 13:16 7,0 C 6,7 C 6,7 C 93 % 1035,0 hPa 0,0 l/m 0 min 0 min 50 W/m 0,0 km/h (0 Bft) 95,74 %
05.01.2020 13:18 7,0 C 6,7 C 6,7 C 93 % 1034,9 hPa 0,0 l/m 0 min 0 min 49 W/m 3,2 km/h (1 Bft) 97,87 %
05.01.2020 13:20 7,0 C 6,7 C 6,7 C 93 % 1034,9 hPa 0,0 l/m 0 min 0 min 49 W/m 0,0 km/h (0 Bft) 97,83 %
05.01.2020 13:22 7,0 C 6,7 C 6,7 C 93 % 1034,9 hPa 0,0 l/m 0 min 0 min 49 W/m 3,2 km/h (1 Bft) 97,87 %
05.01.2020 13:24 7,1 C 7,2 C 6,7 C 92 % 1034,9 hPa 0,0 l/m 0 min 0 min 49 W/m 6,4 km/h (2 Bft) 100,00 %
05.01.2020 13:26 7,1 C 7,2 C 6,7 C 92 % 1034,8 hPa 0,0 l/m 0 min 0 min 49 W/m 0,0 km/h (0 Bft) 100,00 %
05.01.2020 13:28 7,1 C 6,7 C 6,7 C 92 % 1034,8 hPa 0,0 l/m 0 min 0 min 49 W/m 0,0 km/h (0 Bft) 100,00 %
05.01.2020 13:30 7,1 C 7,2 C 6,7 C 92 % 1034,7 hPa 0,0 l/m 0 min 0 min 49 W/m 0,0 km/h (0 Bft) 100,00 %
05.01.2020 13:32 7,1 C 7,2 C 6,7 C 92 % 1034,7 hPa 0,0 l/m 0 min 0 min 49 W/m 0,0 km/h (0 Bft) 97,87 %
05.01.2020 13:34 7,1 C 7,2 C 6,7 C 92 % 1034,8 hPa 0,0 l/m 0 min 0 min 48 W/m 0,0 km/h (0 Bft) 100,00 %
05.01.2020 13:36 7,1 C 6,7 C 6,7 C 92 % 1034,8 hPa 0,0 l/m 0 min 0 min 47 W/m 0,0 km/h (0 Bft) 100,00 %
05.01.2020 13:38 7,1 C 6,7 C 6,7 C 91 % 1034,8 hPa 0,0 l/m 0 min 0 min 47 W/m 0,0 km/h (0 Bft) 100,00 %
05.01.2020 13:40 7,1 C 7,2 C 6,7 C 91 % 1034,7 hPa 0,0 l/m 0 min 0 min 47 W/m 0,0 km/h (0 Bft) 100,00 %
05.01.2020 13:42 7,2 C 7,2 C 6,7 C 91 % 1034,7 hPa 0,0 l/m 0 min 0 min 46 W/m 3,2 km/h (1 Bft) 100,00 %
05.01.2020 13:44 7,2 C 6,7 C 6,7 C 91 % 1034,8 hPa 0,0 l/m 0 min 0 min 46 W/m 0,0 km/h (0 Bft) 100,00 %
05.01.2020 13:46 7,2 C 6,7 C 6,7 C 91 % 1034,8 hPa 0,0 l/m 0 min 0 min 47 W/m 0,0 km/h (0 Bft) 100,00 %
05.01.2020 13:48 7,2 C 7,2 C 6,7 C 91 % 1034,8 hPa 0,0 l/m 0 min 0 min 46 W/m 0,0 km/h (0 Bft) 100,00 %
05.01.2020 13:50 7,2 C 7,2 C 6,7 C 91 % 1034,7 hPa 0,0 l/m 0 min 0 min 46 W/m 3,2 km/h (1 Bft) 100,00 %
05.01.2020 13:52 7,2 C 7,2 C 6,7 C 90 % 1034,7 hPa 0,0 l/m 0 min 0 min 47 W/m 3,2 km/h (1 Bft) 100,00 %
05.01.2020 13:54 7,2 C 7,2 C 6,7 C 90 % 1034,7 hPa 0,0 l/m 0 min 0 min 49 W/m 3,2 km/h (1 Bft) 100,00 %
05.01.2020 13:56 7,2 C 7,2 C 6,7 C 90 % 1034,6 hPa 0,0 l/m 0 min 0 min 49 W/m 0,0 km/h (0 Bft) 97,87 %
05.01.2020 13:58 7,2 C 7,2 C 6,7 C 90 % 1034,6 hPa 0,0 l/m 0 min 0 min 49 W/m 19,3 km/h (3 Bft) 97,87 %
05.01.2020 14:00 7,2 C 7,2 C 6,7 C 89 % 1034,6 hPa 0,0 l/m 0 min 0 min 47 W/m 0,0 km/h (0 Bft) 61,70 %
05.01.2020 14:02 7,2 C 7,2 C 6,7 C 89 % 1034,6 hPa 0,0 l/m 0 min 0 min 47 W/m 0,0 km/h (0 Bft) 95,12 %
05.01.2020 14:04 7,2 C 7,2 C 6,7 C 89 % 1034,6 hPa 0,0 l/m 0 min 0 min 47 W/m 0,0 km/h (0 Bft) 97,87 %
05.01.2020 14:06 7,2 C 7,2 C 6,7 C 89 % 1034,6 hPa 0,0 l/m 0 min 0 min 46 W/m 0,0 km/h (0 Bft) 100,00 %
05.01.2020 14:08 7,2 C 7,2 C 6,7 C 89 % 1034,6 hPa 0,0 l/m 0 min 0 min 44 W/m 0,0 km/h (0 Bft) 100,00 %
05.01.2020 14:10 7,2 C 7,2 C 6,7 C 89 % 1034,6 hPa 0,0 l/m 0 min 0 min 42 W/m 0,0 km/h (0 Bft) 100,00 %
05.01.2020 14:12 7,2 C 7,2 C 6,7 C 89 % 1034,6 hPa 0,0 l/m 0 min 0 min 40 W/m 0,0 km/h (0 Bft) 100,00 %
05.01.2020 14:14 7,2 C 6,7 C 6,1 C 89 % 1034,6 hPa 0,0 l/m 0 min 0 min 39 W/m 3,2 km/h (1 Bft) 100,00 %
05.01.2020 14:16 7,2 C 6,7 C 6,1 C 89 % 1034,6 hPa 0,0 l/m 0 min 0 min 39 W/m 0,0 km/h (0 Bft) 100,00 %
05.01.2020 14:18 7,2 C 6,7 C 6,1 C 88 % 1034,6 hPa 0,0 l/m 0 min 0 min 37 W/m 0,0 km/h (0 Bft) 100,00 %
05.01.2020 14:20 7,2 C 6,7 C 6,1 C 88 % 1034,6 hPa 0,0 l/m 0 min 0 min 39 W/m 0,0 km/h (0 Bft) 100,00 %
05.01.2020 14:22 7,2 C 6,7 C 6,1 C 88 % 1034,6 hPa 0,0 l/m 0 min 0 min 38 W/m 0,0 km/h (0 Bft) 100,00 %
05.01.2020 14:24 7,3 C 6,7 C 6,1 C 88 % 1034,6 hPa 0,0 l/m 0 min 0 min 37 W/m 3,2 km/h (1 Bft) 100,00 %
05.01.2020 14:26 7,3 C 6,7 C 6,1 C 88 % 1034,6 hPa 0,0 l/m 0 min 0 min 38 W/m 0,0 km/h (0 Bft) 97,87 %
05.01.2020 14:28 7,2 C 6,7 C 6,1 C 88 % 1034,5 hPa 0,0 l/m 0 min 0 min 39 W/m 3,2 km/h (1 Bft) 100,00 %
05.01.2020 14:30 7,3 C 6,7 C 6,1 C 88 % 1034,5 hPa 0,0 l/m 0 min 0 min 39 W/m 0,0 km/h (0 Bft) 100,00 %
05.01.2020 14:32 7,3 C 6,7 C 6,1 C 88 % 1034,5 hPa 0,0 l/m 0 min 0 min 39 W/m 0,0 km/h (0 Bft) 100,00 %
05.01.2020 14:34 7,3 C 6,7 C 6,1 C 88 % 1034,5 hPa 0,0 l/m 0 min 0 min 39 W/m 3,2 km/h (1 Bft) 100,00 %
05.01.2020 14:36 7,2 C 6,7 C 6,1 C 88 % 1034,5 hPa 0,0 l/m 0 min 0 min 39 W/m 6,4 km/h (2 Bft) 100,00 %
05.01.2020 14:38 7,2 C 6,7 C 6,1 C 87 % 1034,6 hPa 0,0 l/m 0 min 0 min 37 W/m 0,0 km/h (0 Bft) 97,87 %
05.01.2020 14:40 7,3 C 6,7 C 6,1 C 87 % 1034,5 hPa 0,0 l/m 0 min 0 min 35 W/m 0,0 km/h (0 Bft) 100,00 %
05.01.2020 14:42 7,3 C 6,7 C 6,1 C 87 % 1034,5 hPa 0,0 l/m 0 min 0 min 35 W/m 3,2 km/h (1 Bft) 100,00 %
05.01.2020 14:44 7,3 C 6,7 C 6,1 C 87 % 1034,5 hPa 0,0 l/m 0 min 0 min 35 W/m 0,0 km/h (0 Bft) 97,83 %
05.01.2020 14:46 7,2 C 6,7 C 6,1 C 87 % 1034,5 hPa 0,0 l/m 0 min 0 min 33 W/m 0,0 km/h (0 Bft) 100,00 %
05.01.2020 14:48 7,2 C 6,7 C 6,1 C 87 % 1034,5 hPa 0,0 l/m 0 min 0 min 32 W/m 0,0 km/h (0 Bft) 100,00 %
05.01.2020 14:50 7,2 C 6,7 C 6,1 C 86 % 1034,4 hPa 0,0 l/m 0 min 0 min 32 W/m 25,7 km/h (4 Bft) 97,87 %
05.01.2020 14:52 7,2 C 6,7 C 6,1 C 86 % 1034,5 hPa 0,0 l/m 0 min 0 min 32 W/m 3,2 km/h (1 Bft) 97,83 %
05.01.2020 14:54 7,3 C 6,7 C 6,1 C 86 % 1034,5 hPa 0,0 l/m 0 min 0 min 32 W/m 0,0 km/h (0 Bft) 97,87 %
05.01.2020 14:56 7,3 C 6,7 C 6,1 C 86 % 1034,5 hPa 0,0 l/m 0 min 0 min 30 W/m 0,0 km/h (0 Bft) 97,87 %
05.01.2020 14:58 7,3 C 6,7 C 6,1 C 86 % 1034,5 hPa 0,0 l/m 0 min 0 min 28 W/m 0,0 km/h (0 Bft) 97,87 %
05.01.2020 15:00 7,3 C 6,7 C 6,1 C 86 % 1034,5 hPa 0,0 l/m 0 min 0 min 28 W/m 0,0 km/h (0 Bft) 97,87 %
05.01.2020 15:02 7,3 C 6,7 C 6,1 C 86 % 1034,5 hPa 0,0 l/m 0 min 0 min 28 W/m 0,0 km/h (0 Bft) 95,74 %
05.01.2020 15:04 7,3 C 6,7 C 6,1 C 86 % 1034,5 hPa 0,0 l/m 0 min 0 min 26 W/m 0,0 km/h (0 Bft) 97,83 %
05.01.2020 15:06 7,3 C 6,7 C 6,1 C 86 % 1034,5 hPa 0,0 l/m 0 min 0 min 26 W/m 0,0 km/h (0 Bft) 95,74 %
05.01.2020 15:08 7,3 C 6,7 C 6,1 C 85 % 1034,5 hPa 0,0 l/m 0 min 0 min 26 W/m 0,0 km/h (0 Bft) 95,74 %
05.01.2020 15:10 7,3 C 6,7 C 6,1 C 85 % 1034,5 hPa 0,0 l/m 0 min 0 min 25 W/m 16,1 km/h (3 Bft) 95,74 %
05.01.2020 15:12 7,3 C 6,7 C 6,1 C 85 % 1034,5 hPa 0,0 l/m 0 min 0 min 24 W/m 0,0 km/h (0 Bft) 97,87 %
05.01.2020 15:14 7,3 C 6,7 C 6,1 C 85 % 1034,5 hPa 0,0 l/m 0 min 0 min 23 W/m 3,2 km/h (1 Bft) 93,62 %
05.01.2020 15:16 7,3 C 6,7 C 6,1 C 85 % 1034,6 hPa 0,0 l/m 0 min 0 min 23 W/m 0,0 km/h (0 Bft) 95,65 %
05.01.2020 15:18 7,3 C 6,7 C 6,1 C 85 % 1034,5 hPa 0,0 l/m 0 min 0 min 21 W/m 0,0 km/h (0 Bft) 93,62 %
05.01.2020 15:20 7,2 C 6,7 C 6,1 C 85 % 1034,5 hPa 0,0 l/m 0 min 0 min 21 W/m 0,0 km/h (0 Bft) 95,74 %
05.01.2020 15:22 7,2 C 6,7 C 6,1 C 85 % 1034,5 hPa 0,0 l/m 0 min 0 min 20 W/m 0,0 km/h (0 Bft) 95,74 %
05.01.2020 15:24 7,2 C 6,7 C 6,1 C 85 % 1034,5 hPa 0,0 l/m 0 min 0 min 19 W/m 3,2 km/h (1 Bft) 95,74 %
05.01.2020 15:26 7,2 C 6,7 C 6,1 C 84 % 1034,5 hPa 0,0 l/m 0 min 0 min 18 W/m 0,0 km/h (0 Bft) 95,65 %
05.01.2020 15:28 7,2 C 6,7 C 6,1 C 84 % 1034,5 hPa 0,0 l/m 0 min 0 min 17 W/m 3,2 km/h (1 Bft) 95,74 %
05.01.2020 15:30 7,2 C 6,7 C 6,1 C 84 % 1034,6 hPa 0,0 l/m 0 min 0 min 15 W/m 3,2 km/h (1 Bft) 93,62 %
05.01.2020 15:32 7,2 C 6,7 C 6,1 C 84 % 1034,6 hPa 0,0 l/m 0 min 0 min 14 W/m 3,2 km/h (1 Bft) 95,74 %
05.01.2020 15:34 7,2 C 6,7 C 6,1 C 84 % 1034,7 hPa 0,0 l/m 0 min 0 min 13 W/m 0,0 km/h (0 Bft) 87,23 %
05.01.2020 15:36 7,2 C 6,7 C 6,1 C 84 % 1034,7 hPa 0,0 l/m 0 min 0 min 12 W/m 0,0 km/h (0 Bft) 60,47 %
05.01.2020 15:38 7,2 C 6,7 C 6,1 C 84 % 1034,7 hPa 0,0 l/m 0 min 0 min 12 W/m 3,2 km/h (1 Bft) 93,48 %
05.01.2020 15:40 7,2 C 6,7 C 6,1 C 84 % 1034,6 hPa 0,0 l/m 0 min 0 min 12 W/m 0,0 km/h (0 Bft) 95,74 %
05.01.2020 15:42 7,2 C 6,7 C 6,1 C 84 % 1034,7 hPa 0,0 l/m 0 min 0 min 11 W/m 12,9 km/h (3 Bft) 93,62 %
05.01.2020 15:44 7,2 C 6,7 C 6,1 C 83 % 1034,6 hPa 0,0 l/m 0 min 0 min 11 W/m 0,0 km/h (0 Bft) 95,74 %
05.01.2020 15:46 7,2 C 6,7 C 6,1 C 83 % 1034,7 hPa 0,0 l/m 0 min 0 min 11 W/m 0,0 km/h (0 Bft) 95,74 %
05.01.2020 15:48 7,2 C 6,7 C 6,1 C 83 % 1034,7 hPa 0,0 l/m 0 min 0 min 11 W/m 3,2 km/h (1 Bft) 95,74 %
05.01.2020 15:50 7,2 C 6,7 C 6,1 C 83 % 1034,7 hPa 0,0 l/m 0 min 0 min 11 W/m 0,0 km/h (0 Bft) 91,30 %
05.01.2020 15:52 7,2 C 6,7 C 6,1 C 83 % 1034,7 hPa 0,0 l/m 0 min 0 min 10 W/m 0,0 km/h (0 Bft) 93,62 %
05.01.2020 15:54 7,2 C 6,7 C 6,1 C 83 % 1034,8 hPa 0,0 l/m 0 min 0 min 9 W/m 0,0 km/h (0 Bft) 95,74 %
05.01.2020 15:56 7,2 C 6,7 C 6,1 C 82 % 1034,8 hPa 0,0 l/m 0 min 0 min 7 W/m 19,3 km/h (3 Bft) 95,74 %
05.01.2020 15:58 7,2 C 6,7 C 6,1 C 82 % 1034,8 hPa 0,0 l/m 0 min 0 min 7 W/m 0,0 km/h (0 Bft) 95,74 %
05.01.2020 16:00 7,2 C 6,7 C 6,1 C 82 % 1034,8 hPa 0,0 l/m 0 min 0 min 7 W/m 3,2 km/h (1 Bft) 95,74 %
05.01.2020 16:02 7,2 C 6,7 C 6,1 C 82 % 1034,8 hPa 0,0 l/m 0 min 0 min 5 W/m 0,0 km/h (0 Bft) 95,65 %
05.01.2020 16:04 7,2 C 6,7 C 5,6 C 82 % 1034,8 hPa 0,0 l/m 0 min 0 min 5 W/m 0,0 km/h (0 Bft) 95,74 %
05.01.2020 16:06 7,2 C 6,1 C 5,6 C 82 % 1034,8 hPa 0,0 l/m 0 min 0 min 5 W/m 0,0 km/h (0 Bft) 95,74 %
05.01.2020 16:08 7,1 C 6,7 C 5,6 C 82 % 1034,8 hPa 0,0 l/m 0 min 0 min 5 W/m 0,0 km/h (0 Bft) 95,74 %
05.01.2020 16:10 7,1 C 6,1 C 5,6 C 82 % 1034,8 hPa 0,0 l/m 0 min 0 min 5 W/m 0,0 km/h (0 Bft) 95,74 %
05.01.2020 16:12 7,1 C 6,7 C 5,6 C 82 % 1034,7 hPa 0,0 l/m 0 min 0 min 3 W/m 0,0 km/h (0 Bft) 95,65 %
05.01.2020 16:14 7,1 C 6,7 C 5,6 C 82 % 1034,8 hPa 0,0 l/m 0 min 0 min 0 W/m 0,0 km/h (0 Bft) 95,74 %
05.01.2020 16:16 7,1 C 6,7 C 5,6 C 82 % 1034,7 hPa 0,0 l/m 0 min 0 min 0 W/m 9,7 km/h (2 Bft) 97,87 %
05.01.2020 16:18 7,1 C 6,7 C 5,6 C 82 % 1034,8 hPa 0,0 l/m 0 min 0 min 0 W/m 0,0 km/h (0 Bft) 97,87 %
05.01.2020 16:20 7,1 C 6,7 C 5,6 C 82 % 1034,8 hPa 0,0 l/m 0 min 0 min 0 W/m 0,0 km/h (0 Bft) 100,00 %
05.01.2020 16:22 7,1 C 6,1 C 5,6 C 82 % 1034,8 hPa 0,0 l/m 0 min 0 min 0 W/m 6,4 km/h (2 Bft) 100,00 %
05.01.2020 16:24 7,1 C 6,1 C 5,6 C 82 % 1034,8 hPa 0,0 l/m 0 min 0 min 0 W/m 0,0 km/h (0 Bft) 100,00 %
05.01.2020 16:26 7,1 C 6,1 C 5,6 C 82 % 1034,8 hPa 0,0 l/m 0 min 0 min 0 W/m 0,0 km/h (0 Bft) 97,83 %
05.01.2020 16:28 7,1 C 6,7 C 5,6 C 82 % 1034,8 hPa 0,0 l/m 0 min 0 min 0 W/m 3,2 km/h (1 Bft) 97,87 %
05.01.2020 16:30 7,1 C 6,7 C 5,6 C 82 % 1034,8 hPa 0,0 l/m 0 min 0 min 0 W/m 3,2 km/h (1 Bft) 100,00 %
05.01.2020 16:32 7,1 C 6,7 C 5,6 C 82 % 1034,8 hPa 0,0 l/m 0 min 0 min 0 W/m 0,0 km/h (0 Bft) 100,00 %
05.01.2020 16:34 7,1 C 6,7 C 5,6 C 82 % 1034,8 hPa 0,0 l/m 0 min 0 min 0 W/m 0,0 km/h (0 Bft) 100,00 %
05.01.2020 16:36 7,1 C 6,1 C 5,6 C 82 % 1034,7 hPa 0,0 l/m 0 min 0 min 0 W/m 0,0 km/h (0 Bft) 97,83 %
05.01.2020 16:38 7,1 C 6,1 C 5,6 C 82 % 1034,8 hPa 0,0 l/m 0 min 0 min 0 W/m 6,4 km/h (2 Bft) 97,87 %
05.01.2020 16:40 7,1 C 6,1 C 5,6 C 82 % 1034,7 hPa 0,0 l/m 0 min 0 min 0 W/m 0,0 km/h (0 Bft) 100,00 %
05.01.2020 16:42 7,0 C 6,1 C 5,6 C 82 % 1034,8 hPa 0,0 l/m 0 min 0 min 0 W/m 0,0 km/h (0 Bft) 97,87 %
05.01.2020 16:44 7,0 C 6,1 C 5,6 C 82 % 1034,8 hPa 0,0 l/m 0 min 0 min 0 W/m 0,0 km/h (0 Bft) 95,74 %
05.01.2020 16:46 7,0 C 6,1 C 5,6 C 82 % 1034,8 hPa 0,0 l/m 0 min 0 min 0 W/m 0,0 km/h (0 Bft) 100,00 %
05.01.2020 16:48 7,0 C 6,1 C 5,6 C 82 % 1034,8 hPa 0,0 l/m 0 min 0 min 0 W/m 0,0 km/h (0 Bft) 100,00 %
05.01.2020 16:50 7,0 C 6,1 C 5,6 C 82 % 1034,8 hPa 0,0 l/m 0 min 0 min 0 W/m 0,0 km/h (0 Bft) 100,00 %
05.01.2020 16:52 6,9 C 6,1 C 5,6 C 82 % 1034,8 hPa 0,0 l/m 0 min 0 min 0 W/m 0,0 km/h (0 Bft) 91,49 %
05.01.2020 16:54 6,9 C 6,1 C 5,6 C 82 % 1034,8 hPa 0,0 l/m 0 min 0 min 0 W/m 0,0 km/h (0 Bft) 97,87 %
05.01.2020 16:56 6,9 C 6,1 C 5,6 C 82 % 1034,7 hPa 0,0 l/m 0 min 0 min 0 W/m 0,0 km/h (0 Bft) 100,00 %
05.01.2020 16:58 6,9 C 6,1 C 5,6 C 82 % 1034,7 hPa 0,0 l/m 0 min 0 min 0 W/m 0,0 km/h (0 Bft) 100,00 %
05.01.2020 17:00 6,9 C 6,1 C 5,6 C 82 % 1034,8 hPa 0,0 l/m 0 min 0 min 0 W/m 3,2 km/h (1 Bft) 100,00 %
05.01.2020 17:02 6,9 C 6,1 C 5,6 C 82 % 1034,7 hPa 0,0 l/m 0 min 0 min 0 W/m 3,2 km/h (1 Bft) 100,00 %
05.01.2020 17:04 6,9 C 6,1 C 5,6 C 82 % 1034,8 hPa 0,0 l/m 0 min 0 min 0 W/m 0,0 km/h (0 Bft) 54,55 %
05.01.2020 17:06 6,9 C 6,1 C 5,6 C 82 % 1034,8 hPa 0,0 l/m 0 min 0 min 0 W/m 0,0 km/h (0 Bft) 100,00 %
05.01.2020 17:08 6,9 C 6,1 C 5,6 C 82 % 1034,7 hPa 0,0 l/m 0 min 0 min 0 W/m 0,0 km/h (0 Bft) 100,00 %
05.01.2020 17:10 6,9 C 6,1 C 5,6 C 82 % 1034,7 hPa 0,0 l/m 0 min 0 min 0 W/m 0,0 km/h (0 Bft) 100,00 %
05.01.2020 17:12 6,9 C 6,1 C 5,6 C 82 % 1034,7 hPa 0,0 l/m 0 min 0 min 0 W/m 0,0 km/h (0 Bft) 100,00 %
05.01.2020 17:14 6,9 C 6,1 C 5,6 C 82 % 1034,7 hPa 0,0 l/m 0 min 0 min 0 W/m 0,0 km/h (0 Bft) 100,00 %
05.01.2020 17:16 6,9 C 6,1 C 5,6 C 82 % 1034,7 hPa 0,0 l/m 0 min 0 min 0 W/m 0,0 km/h (0 Bft) 100,00 %
05.01.2020 17:18 6,8 C 6,1 C 5,6 C 82 % 1034,7 hPa 0,0 l/m 0 min 0 min 0 W/m 0,0 km/h (0 Bft) 97,87 %
05.01.2020 17:20 6,8 C 6,1 C 5,6 C 82 % 1034,7 hPa 0,0 l/m 0 min 0 min 0 W/m 0,0 km/h (0 Bft) 95,74 %
05.01.2020 17:22 6,8 C 6,1 C 5,6 C 81 % 1034,7 hPa 0,0 l/m 0 min 0 min 0 W/m 0,0 km/h (0 Bft) 95,65 %
05.01.2020 17:24 6,8 C 6,1 C 5,6 C 81 % 1034,7 hPa 0,0 l/m 0 min 0 min 0 W/m 0,0 km/h (0 Bft) 97,87 %
05.01.2020 17:26 6,8 C 6,1 C 5,6 C 81 % 1034,7 hPa 0,0 l/m 0 min 0 min 0 W/m 0,0 km/h (0 Bft) 97,87 %
05.01.2020 17:28 6,8 C 6,1 C 5,6 C 81 % 1034,7 hPa 0,0 l/m 0 min 0 min 0 W/m 3,2 km/h (1 Bft) 97,87 %
05.01.2020 17:30 6,8 C 6,1 C 5,6 C 81 % 1034,7 hPa 0,0 l/m 0 min 0 min 0 W/m 0,0 km/h (0 Bft) 97,87 %
05.01.2020 17:32 6,8 C 6,1 C 5,6 C 81 % 1034,7 hPa 0,0 l/m 0 min 0 min 0 W/m 0,0 km/h (0 Bft) 95,12 %
05.01.2020 17:34 6,8 C 6,1 C 5,6 C 81 % 1034,6 hPa 0,0 l/m 0 min 0 min 0 W/m 0,0 km/h (0 Bft) 97,87 %
05.01.2020 17:36 6,8 C 6,1 C 5,6 C 81 % 1034,6 hPa 0,0 l/m 0 min 0 min 0 W/m 0,0 km/h (0 Bft) 97,67 %
05.01.2020 17:38 6,8 C 6,1 C 5,6 C 81 % 1034,6 hPa 0,0 l/m 0 min 0 min 0 W/m 0,0 km/h (0 Bft) 97,87 %
05.01.2020 17:40 6,8 C 6,1 C 5,6 C 81 % 1034,6 hPa 0,0 l/m 0 min 0 min 0 W/m 0,0 km/h (0 Bft) 97,87 %
05.01.2020 17:42 6,8 C 6,1 C 5,6 C 81 % 1034,6 hPa 0,0 l/m 0 min 0 min 0 W/m 0,0 km/h (0 Bft) 95,74 %
05.01.2020 17:44 6,8 C 6,1 C 5,6 C 81 % 1034,6 hPa 0,0 l/m 0 min 0 min 0 W/m 0,0 km/h (0 Bft) 95,74 %
05.01.2020 17:46 6,8 C 6,1 C 5,6 C 81 % 1034,6 hPa 0,0 l/m 0 min 0 min 0 W/m 0,0 km/h (0 Bft) 97,87 %
05.01.2020 17:48 6,8 C 6,1 C 5,6 C 81 % 1034,6 hPa 0,0 l/m 0 min 0 min 0 W/m 0,0 km/h (0 Bft) 97,83 %
05.01.2020 17:50 6,8 C 6,1 C 5,6 C 81 % 1034,5 hPa 0,0 l/m 0 min 0 min 0 W/m 0,0 km/h (0 Bft) 97,87 %
05.01.2020 17:52 6,8 C 6,1 C 5,6 C 81 % 1034,5 hPa 0,0 l/m 0 min 0 min 0 W/m 0,0 km/h (0 Bft) 97,87 %
05.01.2020 17:54 6,8 C 6,1 C 5,6 C 81 % 1034,6 hPa 0,0 l/m 0 min 0 min 0 W/m 0,0 km/h (0 Bft) 97,87 %
05.01.2020 17:56 6,8 C 6,1 C 5,6 C 81 % 1034,6 hPa 0,0 l/m 0 min 0 min 0 W/m 0,0 km/h (0 Bft) 97,87 %
05.01.2020 17:58 6,8 C 6,1 C 5,6 C 81 % 1034,6 hPa 0,0 l/m 0 min 0 min 0 W/m 0,0 km/h (0 Bft) 95,74 %
05.01.2020 18:00 6,8 C 6,1 C 5,0 C 81 % 1034,6 hPa 0,0 l/m 0 min 0 min 0 W/m 0,0 km/h (0 Bft) 100,00 %
05.01.2020 18:02 6,7 C 6,1 C 5,6 C 81 % 1034,6 hPa 0,0 l/m 0 min 0 min 0 W/m 0,0 km/h (0 Bft) 97,87 %
05.01.2020 18:04 6,7 C 6,1 C 5,6 C 81 % 1034,6 hPa 0,0 l/m 0 min 0 min 0 W/m 0,0 km/h (0 Bft) 97,87 %
05.01.2020 18:06 6,7 C 6,1 C 5,6 C 81 % 1034,5 hPa 0,0 l/m 0 min 0 min 0 W/m 0,0 km/h (0 Bft) 100,00 %
05.01.2020 18:08 6,7 C 6,1 C 5,6 C 81 % 1034,5 hPa 0,0 l/m 0 min 0 min 0 W/m 3,2 km/h (1 Bft) 100,00 %
05.01.2020 18:10 6,7 C 6,1 C 5,6 C 81 % 1034,5 hPa 0,0 l/m 0 min 0 min 0 W/m 3,2 km/h (1 Bft) 97,87 %
05.01.2020 18:12 6,7 C 6,1 C 5,6 C 80 % 1034,5 hPa 0,0 l/m 0 min 0 min 0 W/m 0,0 km/h (0 Bft) 95,65 %
05.01.2020 18:14 6,7 C 6,1 C 5,6 C 80 % 1034,5 hPa 0,0 l/m 0 min 0 min 0 W/m 3,2 km/h (1 Bft) 100,00 %
05.01.2020 18:16 6,7 C 6,1 C 5,6 C 80 % 1034,5 hPa 0,0 l/m 0 min 0 min 0 W/m 0,0 km/h (0 Bft) 100,00 %
05.01.2020 18:18 6,7 C 6,1 C 5,6 C 80 % 1034,5 hPa 0,0 l/m 0 min 0 min 0 W/m 0,0 km/h (0 Bft) 97,87 %
05.01.2020 18:20 6,7 C 6,1 C 5,6 C 80 % 1034,5 hPa 0,0 l/m 0 min 0 min 0 W/m 12,9 km/h (3 Bft) 97,87 %
05.01.2020 18:22 6,7 C 6,1 C 5,6 C 80 % 1034,5 hPa 0,0 l/m 0 min 0 min 0 W/m 3,2 km/h (1 Bft) 97,87 %
05.01.2020 18:24 6,7 C 6,1 C 5,6 C 80 % 1034,4 hPa 0,0 l/m 0 min 0 min 0 W/m 0,0 km/h (0 Bft) 100,00 %
05.01.2020 18:26 6,7 C 6,1 C 5,6 C 80 % 1034,5 hPa 0,0 l/m 0 min 0 min 0 W/m 6,4 km/h (2 Bft) 95,74 %
05.01.2020 18:28 6,7 C 6,1 C 5,6 C 80 % 1034,4 hPa 0,0 l/m 0 min 0 min 0 W/m 0,0 km/h (0 Bft) 100,00 %
05.01.2020 18:30 6,7 C 6,1 C 5,6 C 80 % 1034,4 hPa 0,0 l/m 0 min 0 min 0 W/m 0,0 km/h (0 Bft) 97,87 %
05.01.2020 18:32 6,7 C 6,1 C 5,6 C 80 % 1034,4 hPa 0,0 l/m 0 min 0 min 0 W/m 0,0 km/h (0 Bft) 97,87 %
05.01.2020 18:34 6,7 C 6,1 C 5,6 C 80 % 1034,4 hPa 0,0 l/m 0 min 0 min 0 W/m 0,0 km/h (0 Bft) 95,74 %
05.01.2020 18:36 6,8 C 6,1 C 5,6 C 80 % 1034,3 hPa 0,0 l/m 0 min 0 min 0 W/m 0,0 km/h (0 Bft) 97,83 %
05.01.2020 18:38 6,7 C 6,1 C 5,6 C 80 % 1034,3 hPa 0,0 l/m 0 min 0 min 0 W/m 0,0 km/h (0 Bft) 95,74 %
05.01.2020 18:40 6,8 C 6,1 C 5,6 C 80 % 1034,3 hPa 0,0 l/m 0 min 0 min 0 W/m 0,0 km/h (0 Bft) 97,87 %
05.01.2020 18:42 6,8 C 6,1 C 5,6 C 80 % 1034,3 hPa 0,0 l/m 0 min 0 min 0 W/m 0,0 km/h (0 Bft) 97,87 %
05.01.2020 18:44 6,8 C 6,1 C 5,6 C 80 % 1034,3 hPa 0,0 l/m 0 min 0 min 0 W/m 0,0 km/h (0 Bft) 95,74 %
05.01.2020 18:46 6,8 C 6,1 C 5,6 C 80 % 1034,3 hPa 0,0 l/m 0 min 0 min 0 W/m 0,0 km/h (0 Bft) 95,74 %
05.01.2020 18:48 6,8 C 6,1 C 5,6 C 80 % 1034,3 hPa 0,0 l/m 0 min 0 min 0 W/m 0,0 km/h (0 Bft) 95,65 %
05.01.2020 18:50 6,8 C 6,1 C 5,6 C 80 % 1034,3 hPa 0,0 l/m 0 min 0 min 0 W/m 0,0 km/h (0 Bft) 95,74 %
05.01.2020 18:52 6,8 C 6,1 C 5,6 C 80 % 1034,3 hPa 0,0 l/m 0 min 0 min 0 W/m 0,0 km/h (0 Bft) 95,74 %
05.01.2020 18:54 6,8 C 6,1 C 5,6 C 80 % 1034,3 hPa 0,0 l/m 0 min 0 min 0 W/m 0,0 km/h (0 Bft) 95,74 %
05.01.2020 18:56 6,8 C 6,1 C 5,6 C 80 % 1034,3 hPa 0,0 l/m 0 min 0 min 0 W/m 0,0 km/h (0 Bft) 95,74 %
05.01.2020 18:58 6,8 C 6,1 C 5,6 C 80 % 1034,2 hPa 0,0 l/m 0 min 0 min 0 W/m 0,0 km/h (0 Bft) 95,74 %
05.01.2020 19:00 6,8 C 6,1 C 5,6 C 80 % 1034,2 hPa 0,0 l/m 0 min 0 min 0 W/m 0,0 km/h (0 Bft) 95,65 %
05.01.2020 19:02 6,8 C 6,1 C 5,6 C 81 % 1034,2 hPa 0,0 l/m 0 min 0 min 0 W/m 0,0 km/h (0 Bft) 93,62 %
05.01.2020 19:04 6,8 C 6,1 C 5,6 C 81 % 1034,1 hPa 0,0 l/m 0 min 0 min 0 W/m 0,0 km/h (0 Bft) 95,74 %
05.01.2020 19:06 6,7 C 6,1 C 5,6 C 81 % 1034,1 hPa 0,0 l/m 0 min 0 min 0 W/m 0,0 km/h (0 Bft) 95,74 %
05.01.2020 19:08 6,7 C 6,1 C 5,6 C 81 % 1034,2 hPa 0,0 l/m 0 min 0 min 0 W/m 0,0 km/h (0 Bft) 97,87 %
05.01.2020 19:10 6,7 C 6,1 C 5,6 C 81 % 1034,1 hPa 0,0 l/m 0 min 0 min 0 W/m 0,0 km/h (0 Bft) 97,83 %
05.01.2020 19:12 6,7 C 6,1 C 5,6 C 81 % 1034,1 hPa 0,0 l/m 0 min 0 min 0 W/m 0,0 km/h (0 Bft) 93,62 %
05.01.2020 19:14 6,7 C 6,1 C 5,6 C 81 % 1034,0 hPa 0,0 l/m 0 min 0 min 0 W/m 0,0 km/h (0 Bft) 95,74 %
05.01.2020 19:16 6,7 C 6,1 C 5,6 C 81 % 1034,0 hPa 0,0 l/m 0 min 0 min 0 W/m 0,0 km/h (0 Bft) 97,87 %
05.01.2020 19:18 6,7 C 6,1 C 5,6 C 81 % 1034,1 hPa 0,0 l/m 0 min 0 min 0 W/m 0,0 km/h (0 Bft) 97,87 %
05.01.2020 19:20 6,7 C 6,1 C 5,6 C 81 % 1034,0 hPa 0,0 l/m 0 min 0 min 0 W/m 0,0 km/h (0 Bft) 95,74 %
05.01.2020 19:22 6,7 C 6,1 C 5,6 C 81 % 1034,0 hPa 0,0 l/m 0 min 0 min 0 W/m 0,0 km/h (0 Bft) 97,83 %
05.01.2020 19:24 6,7 C 6,1 C 5,6 C 81 % 1034,0 hPa 0,0 l/m 0 min 0 min 0 W/m 0,0 km/h (0 Bft) 97,87 %
05.01.2020 19:26 6,7 C 6,1 C 5,6 C 81 % 1034,0 hPa 0,0 l/m 0 min 0 min 0 W/m 0,0 km/h (0 Bft) 97,87 %
05.01.2020 19:28 6,7 C 6,1 C 5,6 C 81 % 1034,0 hPa 0,0 l/m 0 min 0 min 0 W/m 0,0 km/h (0 Bft) 97,87 %
05.01.2020 19:30 6,7 C 6,1 C 5,6 C 81 % 1034,0 hPa 0,0 l/m 0 min 0 min 0 W/m 0,0 km/h (0 Bft) 95,74 %
05.01.2020 19:32 6,7 C 6,1 C 5,6 C 81 % 1034,1 hPa 0,0 l/m 0 min 0 min 0 W/m 0,0 km/h (0 Bft) 97,87 %
05.01.2020 19:34 6,7 C 6,1 C 5,6 C 81 % 1034,0 hPa 0,0 l/m 0 min 0 min 0 W/m 3,2 km/h (1 Bft) 100,00 %
05.01.2020 19:36 6,7 C 6,1 C 5,6 C 81 % 1034,1 hPa 0,0 l/m 0 min 0 min 0 W/m 0,0 km/h (0 Bft) 100,00 %
05.01.2020 19:38 6,7 C 6,1 C 5,6 C 81 % 1034,0 hPa 0,0 l/m 0 min 0 min 0 W/m 0,0 km/h (0 Bft) 100,00 %
05.01.2020 19:40 6,7 C 6,1 C 5,6 C 81 % 1033,9 hPa 0,0 l/m 0 min 0 min 0 W/m 0,0 km/h (0 Bft) 97,87 %
05.01.2020 19:42 6,7 C 6,1 C 5,6 C 81 % 1033,9 hPa 0,0 l/m 0 min 0 min 0 W/m 0,0 km/h (0 Bft) 97,87 %
05.01.2020 19:44 6,7 C 6,1 C 5,6 C 81 % 1033,9 hPa 0,0 l/m 0 min 0 min 0 W/m 0,0 km/h (0 Bft) 100,00 %
05.01.2020 19:46 6,7 C 6,1 C 5,6 C 82 % 1033,8 hPa 0,0 l/m 0 min 0 min 0 W/m 0,0 km/h (0 Bft) 97,83 %
05.01.2020 19:48 6,7 C 6,1 C 5,6 C 82 % 1033,8 hPa 0,0 l/m 0 min 0 min 0 W/m 0,0 km/h (0 Bft) 95,74 %
05.01.2020 19:50 6,7 C 6,1 C 5,6 C 82 % 1033,9 hPa 0,0 l/m 0 min 0 min 0 W/m 0,0 km/h (0 Bft) 97,87 %
05.01.2020 19:52 6,7 C 6,1 C 5,6 C 82 % 1033,9 hPa 0,0 l/m 0 min 0 min 0 W/m 0,0 km/h (0 Bft) 72,34 %
05.01.2020 19:54 6,7 C 6,1 C 5,6 C 82 % 1033,9 hPa 0,0 l/m 0 min 0 min 0 W/m 0,0 km/h (0 Bft) 78,72 %
05.01.2020 19:56 6,7 C 6,1 C 5,6 C 82 % 1033,9 hPa 0,0 l/m 0 min 0 min 0 W/m 0,0 km/h (0 Bft) 97,83 %
05.01.2020 19:58 6,7 C 6,1 C 5,6 C 82 % 1033,9 hPa 0,0 l/m 0 min 0 min 0 W/m 0,0 km/h (0 Bft) 97,87 %
05.01.2020 20:00 6,7 C 6,1 C 5,6 C 82 % 1033,9 hPa 0,0 l/m 0 min 0 min 0 W/m 0,0 km/h (0 Bft) 95,74 %
05.01.2020 20:02 6,7 C 6,1 C 5,6 C 82 % 1034,0 hPa 0,0 l/m 0 min 0 min 0 W/m 0,0 km/h (0 Bft) 95,74 %
05.01.2020 20:04 6,7 C 6,1 C 5,6 C 82 % 1034,0 hPa 0,0 l/m 0 min 0 min 0 W/m 0,0 km/h (0 Bft) 93,62 %
05.01.2020 20:06 6,7 C 6,1 C 5,6 C 82 % 1034,0 hPa 0,0 l/m 0 min 0 min 0 W/m 0,0 km/h (0 Bft) 96,55 %
05.01.2020 20:08 6,7 C 6,1 C 5,6 C 82 % 1033,9 hPa 0,0 l/m 0 min 0 min 0 W/m 0,0 km/h (0 Bft) 97,22 %
05.01.2020 20:10 6,7 C 6,1 C 5,6 C 82 % 1033,9 hPa 0,0 l/m 0 min 0 min 0 W/m 0,0 km/h (0 Bft) 97,83 %
05.01.2020 20:12 6,6 C 6,1 C 5,6 C 82 % 1033,9 hPa 0,0 l/m 0 min 0 min 0 W/m 0,0 km/h (0 Bft) 97,87 %
05.01.2020 20:14 6,6 C 6,1 C 5,0 C 82 % 1033,9 hPa 0,0 l/m 0 min 0 min 0 W/m 0,0 km/h (0 Bft) 97,87 %
05.01.2020 20:16 6,6 C 6,1 C 5,6 C 82 % 1034,0 hPa 0,0 l/m 0 min 0 min 0 W/m 0,0 km/h (0 Bft) 97,87 %
05.01.2020 20:18 6,6 C 6,1 C 5,0 C 82 % 1034,0 hPa 0,0 l/m 0 min 0 min 0 W/m 0,0 km/h (0 Bft) 95,74 %
05.01.2020 20:20 6,6 C 6,1 C 5,0 C 82 % 1033,9 hPa 0,0 l/m 0 min 0 min 0 W/m 0,0 km/h (0 Bft) 95,65 %
05.01.2020 20:22 6,6 C 6,1 C 5,0 C 82 % 1033,9 hPa 0,0 l/m 0 min 0 min 0 W/m 0,0 km/h (0 Bft) 95,74 %
05.01.2020 20:24 6,6 C 6,1 C 5,0 C 83 % 1033,9 hPa 0,0 l/m 0 min 0 min 0 W/m 3,2 km/h (1 Bft) 97,87 %
05.01.2020 20:26 6,6 C 5,6 C 5,0 C 83 % 1033,8 hPa 0,0 l/m 0 min 0 min 0 W/m 0,0 km/h (0 Bft) 97,87 %
05.01.2020 20:28 6,6 C 6,1 C 5,0 C 83 % 1033,9 hPa 0,0 l/m 0 min 0 min 0 W/m 0,0 km/h (0 Bft) 97,87 %
05.01.2020 20:30 6,6 C 5,6 C 5,0 C 83 % 1033,9 hPa 0,0 l/m 0 min 0 min 0 W/m 0,0 km/h (0 Bft) 97,87 %
05.01.2020 20:32 6,6 C 6,1 C 5,0 C 83 % 1033,8 hPa 0,0 l/m 0 min 0 min 0 W/m 0,0 km/h (0 Bft) 97,83 %
05.01.2020 20:34 6,6 C 6,1 C 5,0 C 83 % 1033,9 hPa 0,0 l/m 0 min 0 min 0 W/m 3,2 km/h (1 Bft) 97,87 %
05.01.2020 20:36 6,6 C 6,1 C 5,0 C 83 % 1033,8 hPa 0,0 l/m 0 min 0 min 0 W/m 0,0 km/h (0 Bft) 100,00 %
05.01.2020 20:38 6,6 C 6,1 C 5,0 C 83 % 1033,8 hPa 0,0 l/m 0 min 0 min 0 W/m 0,0 km/h (0 Bft) 100,00 %
05.01.2020 20:40 6,6 C 6,1 C 5,0 C 83 % 1033,8 hPa 0,0 l/m 0 min 0 min 0 W/m 9,7 km/h (2 Bft) 100,00 %
05.01.2020 20:42 6,6 C 6,1 C 5,0 C 83 % 1033,7 hPa 0,0 l/m 0 min 0 min 0 W/m 0,0 km/h (0 Bft) 100,00 %
05.01.2020 20:44 6,6 C 6,1 C 5,0 C 83 % 1033,8 hPa 0,0 l/m 0 min 0 min 0 W/m 0,0 km/h (0 Bft) 97,83 %
05.01.2020 20:46 6,6 C 5,6 C 5,0 C 83 % 1033,7 hPa 0,0 l/m 0 min 0 min 0 W/m 0,0 km/h (0 Bft) 100,00 %
05.01.2020 20:48 6,5 C 6,1 C 5,0 C 83 % 1033,7 hPa 0,0 l/m 0 min 0 min 0 W/m 0,0 km/h (0 Bft) 100,00 %
05.01.2020 20:50 6,5 C 5,6 C 5,0 C 83 % 1033,7 hPa 0,0 l/m 0 min 0 min 0 W/m 3,2 km/h (1 Bft) 95,74 %
05.01.2020 20:52 6,5 C 5,6 C 5,0 C 83 % 1033,7 hPa 0,0 l/m 0 min 0 min 0 W/m 0,0 km/h (0 Bft) 100,00 %
05.01.2020 20:54 6,5 C 5,6 C 5,0 C 83 % 1033,7 hPa 0,0 l/m 0 min 0 min 0 W/m 0,0 km/h (0 Bft) 100,00 %
05.01.2020 20:56 6,5 C 5,6 C 5,0 C 84 % 1033,6 hPa 0,0 l/m 0 min 0 min 0 W/m 0,0 km/h (0 Bft) 97,83 %
05.01.2020 20:58 6,5 C 5,6 C 5,0 C 84 % 1033,6 hPa 0,0 l/m 0 min 0 min 0 W/m 0,0 km/h (0 Bft) 97,87 %
05.01.2020 21:00 6,5 C 5,6 C 5,0 C 84 % 1033,5 hPa 0,0 l/m 0 min 0 min 0 W/m 6,4 km/h (2 Bft) 100,00 %
05.01.2020 21:02 6,5 C 5,6 C 5,0 C 84 % 1033,5 hPa 0,0 l/m 0 min 0 min 0 W/m 0,0 km/h (0 Bft) 97,87 %
05.01.2020 21:04 6,5 C 5,6 C 5,0 C 84 % 1033,5 hPa 0,0 l/m 0 min 0 min 0 W/m 3,2 km/h (1 Bft) 100,00 %
05.01.2020 21:06 6,5 C 5,6 C 5,0 C 84 % 1033,5 hPa 0,0 l/m 0 min 0 min 0 W/m 0,0 km/h (0 Bft) 100,00 %
05.01.2020 21:08 6,5 C 5,6 C 5,0 C 84 % 1033,5 hPa 0,0 l/m 0 min 0 min 0 W/m 3,2 km/h (1 Bft) 97,83 %
05.01.2020 21:10 6,5 C 5,6 C 5,0 C 84 % 1033,5 hPa 0,0 l/m 0 min 0 min 0 W/m 3,2 km/h (1 Bft) 97,87 %
05.01.2020 21:12 6,5 C 5,6 C 5,0 C 84 % 1033,5 hPa 0,0 l/m 0 min 0 min 0 W/m 0,0 km/h (0 Bft) 97,87 %
05.01.2020 21:14 6,5 C 5,6 C 5,0 C 84 % 1033,5 hPa 0,0 l/m 0 min 0 min 0 W/m 0,0 km/h (0 Bft) 97,87 %
05.01.2020 21:16 6,5 C 5,6 C 5,0 C 84 % 1033,5 hPa 0,0 l/m 0 min 0 min 0 W/m 0,0 km/h (0 Bft) 93,62 %
05.01.2020 21:18 6,5 C 5,6 C 5,0 C 84 % 1033,5 hPa 0,0 l/m 0 min 0 min 0 W/m 0,0 km/h (0 Bft) 97,83 %
05.01.2020 21:20 6,4 C 5,6 C 5,0 C 84 % 1033,5 hPa 0,0 l/m 0 min 0 min 0 W/m 0,0 km/h (0 Bft) 97,87 %
05.01.2020 21:22 6,5 C 5,6 C 5,0 C 84 % 1033,5 hPa 0,0 l/m 0 min 0 min 0 W/m 0,0 km/h (0 Bft) 95,74 %
05.01.2020 21:24 6,4 C 5,6 C 5,0 C 84 % 1033,4 hPa 0,0 l/m 0 min 0 min 0 W/m 0,0 km/h (0 Bft) 97,87 %
05.01.2020 21:26 6,4 C 5,6 C 5,0 C 84 % 1033,4 hPa 0,0 l/m 0 min 0 min 0 W/m 0,0 km/h (0 Bft) 97,87 %
05.01.2020 21:28 6,4 C 5,6 C 5,0 C 84 % 1033,3 hPa 0,0 l/m 0 min 0 min 0 W/m 0,0 km/h (0 Bft) 95,74 %
05.01.2020 21:30 6,4 C 5,6 C 5,0 C 84 % 1033,3 hPa 0,0 l/m 0 min 0 min 0 W/m 0,0 km/h (0 Bft) 97,83 %
05.01.2020 21:32 6,4 C 5,6 C 5,0 C 84 % 1033,4 hPa 0,0 l/m 0 min 0 min 0 W/m 0,0 km/h (0 Bft) 97,87 %
05.01.2020 21:34 6,4 C 5,6 C 5,0 C 84 % 1033,3 hPa 0,0 l/m 0 min 0 min 0 W/m 0,0 km/h (0 Bft) 97,87 %
05.01.2020 21:36 6,4 C 5,6 C 5,0 C 84 % 1033,4 hPa 0,0 l/m 0 min 0 min 0 W/m 0,0 km/h (0 Bft) 97,87 %
05.01.2020 21:38 6,4 C 6,1 C 5,0 C 84 % 1033,4 hPa 0,0 l/m 0 min 0 min 0 W/m 0,0 km/h (0 Bft) 100,00 %
05.01.2020 21:40 6,4 C 6,1 C 5,0 C 84 % 1033,4 hPa 0,0 l/m 0 min 0 min 0 W/m 0,0 km/h (0 Bft) 97,22 %
05.01.2020 21:42 6,4 C 6,1 C 5,0 C 84 % 1033,3 hPa 0,0 l/m 0 min 0 min 0 W/m 0,0 km/h (0 Bft) 95,65 %
05.01.2020 21:44 6,4 C 5,6 C 5,0 C 84 % 1033,4 hPa 0,0 l/m 0 min 0 min 0 W/m 0,0 km/h (0 Bft) 97,87 %
05.01.2020 21:46 6,4 C 5,6 C 5,0 C 84 % 1033,4 hPa 0,0 l/m 0 min 0 min 0 W/m 0,0 km/h (0 Bft) 95,74 %
05.01.2020 21:48 6,4 C 5,6 C 5,0 C 84 % 1033,4 hPa 0,0 l/m 0 min 0 min 0 W/m 0,0 km/h (0 Bft) 97,87 %
05.01.2020 21:50 6,4 C 5,6 C 5,0 C 84 % 1033,3 hPa 0,0 l/m 0 min 0 min 0 W/m 0,0 km/h (0 Bft) 97,87 %
05.01.2020 21:52 6,4 C 5,6 C 5,0 C 84 % 1033,3 hPa 0,0 l/m 0 min 0 min 0 W/m 0,0 km/h (0 Bft) 95,74 %
05.01.2020 21:54 6,4 C 5,6 C 5,0 C 84 % 1033,2 hPa 0,0 l/m 0 min 0 min 0 W/m 0,0 km/h (0 Bft) 100,00 %
05.01.2020 21:56 6,4 C 5,6 C 5,0 C 85 % 1033,2 hPa 0,0 l/m 0 min 0 min 0 W/m 0,0 km/h (0 Bft) 100,00 %
05.01.2020 21:58 6,4 C 5,6 C 5,0 C 85 % 1033,3 hPa 0,0 l/m 0 min 0 min 0 W/m 3,2 km/h (1 Bft) 97,87 %
05.01.2020 22:00 6,4 C 5,6 C 5,0 C 85 % 1033,2 hPa 0,0 l/m 0 min 0 min 0 W/m 0,0 km/h (0 Bft) 93,62 %
05.01.2020 22:02 6,4 C 6,1 C 5,0 C 85 % 1033,2 hPa 0,0 l/m 0 min 0 min 0 W/m 0,0 km/h (0 Bft) 97,87 %
05.01.2020 22:04 6,4 C 6,1 C 5,0 C 85 % 1033,2 hPa 0,0 l/m 0 min 0 min 0 W/m 0,0 km/h (0 Bft) 97,87 %
05.01.2020 22:06 6,4 C 6,1 C 5,0 C 85 % 1033,1 hPa 0,0 l/m 0 min 0 min 0 W/m 0,0 km/h (0 Bft) 95,65 %
05.01.2020 22:08 6,4 C 6,1 C 5,0 C 85 % 1033,2 hPa 0,0 l/m 0 min 0 min 0 W/m 0,0 km/h (0 Bft) 96,61 %
05.01.2020 22:10 6,4 C 6,1 C 5,0 C 85 % 1033,2 hPa 0,0 l/m 0 min 0 min 0 W/m 0,0 km/h (0 Bft) 97,14 %
05.01.2020 22:12 6,4 C 6,1 C 5,0 C 85 % 1033,2 hPa 0,0 l/m 0 min 0 min 0 W/m 0,0 km/h (0 Bft) 97,87 %
05.01.2020 22:14 6,4 C 6,1 C 5,0 C 85 % 1033,2 hPa 0,0 l/m 0 min 0 min 0 W/m 0,0 km/h (0 Bft) 95,74 %
05.01.2020 22:16 6,4 C 6,1 C 5,0 C 85 % 1033,2 hPa 0,0 l/m 0 min 0 min 0 W/m 0,0 km/h (0 Bft) 97,87 %
05.01.2020 22:18 6,4 C 6,1 C 5,0 C 85 % 1033,2 hPa 0,0 l/m 0 min 0 min 0 W/m 0,0 km/h (0 Bft) 97,83 %
05.01.2020 22:20 6,4 C 6,1 C 5,0 C 85 % 1033,2 hPa 0,0 l/m 0 min 0 min 0 W/m 0,0 km/h (0 Bft) 97,87 %
05.01.2020 22:22 6,4 C 6,1 C 5,0 C 85 % 1033,1 hPa 0,0 l/m 0 min 0 min 0 W/m 0,0 km/h (0 Bft) 97,87 %
05.01.2020 22:24 6,5 C 6,1 C 5,0 C 85 % 1033,1 hPa 0,0 l/m 0 min 0 min 0 W/m 0,0 km/h (0 Bft) 95,74 %
05.01.2020 22:26 6,4 C 6,1 C 5,0 C 85 % 1033,1 hPa 0,0 l/m 0 min 0 min 0 W/m 0,0 km/h (0 Bft) 95,74 %
05.01.2020 22:28 6,4 C 5,6 C 5,0 C 85 % 1033,1 hPa 0,0 l/m 0 min 0 min 0 W/m 0,0 km/h (0 Bft) 95,74 %
05.01.2020 22:30 6,4 C 5,6 C 5,0 C 85 % 1033,0 hPa 0,0 l/m 0 min 0 min 0 W/m 0,0 km/h (0 Bft) 95,65 %
05.01.2020 22:32 6,4 C 5,6 C 5,0 C 85 % 1033,1 hPa 0,0 l/m 0 min 0 min 0 W/m 0,0 km/h (0 Bft) 95,74 %
05.01.2020 22:34 6,4 C 5,6 C 5,0 C 85 % 1033,1 hPa 0,0 l/m 0 min 0 min 0 W/m 0,0 km/h (0 Bft) 95,74 %
05.01.2020 22:36 6,5 C 5,6 C 5,0 C 85 % 1033,1 hPa 0,0 l/m 0 min 0 min 0 W/m 0,0 km/h (0 Bft) 36,36 %
05.01.2020 22:38 6,4 C 5,6 C 5,0 C 85 % 1033,1 hPa 0,0 l/m 0 min 0 min 0 W/m 0,0 km/h (0 Bft) 95,74 %
05.01.2020 22:40 6,5 C 5,6 C 5,0 C 85 % 1033,0 hPa 0,0 l/m 0 min 0 min 0 W/m 0,0 km/h (0 Bft) 95,65 %
05.01.2020 22:42 6,4 C 5,6 C 5,0 C 85 % 1033,0 hPa 0,0 l/m 0 min 0 min 0 W/m 0,0 km/h (0 Bft) 95,74 %
05.01.2020 22:44 6,4 C 5,6 C 5,0 C 85 % 1033,0 hPa 0,0 l/m 0 min 0 min 0 W/m 0,0 km/h (0 Bft) 93,62 %
05.01.2020 22:46 6,4 C 5,6 C 5,0 C 85 % 1033,0 hPa 0,0 l/m 0 min 0 min 0 W/m 0,0 km/h (0 Bft) 95,74 %
05.01.2020 22:48 6,4 C 5,6 C 5,0 C 85 % 1033,0 hPa 0,0 l/m 0 min 0 min 0 W/m 0,0 km/h (0 Bft) 95,74 %
05.01.2020 22:50 6,4 C 5,6 C 5,0 C 85 % 1033,1 hPa 0,0 l/m 0 min 0 min 0 W/m 0,0 km/h (0 Bft) 93,62 %
05.01.2020 22:52 6,4 C 5,6 C 5,0 C 85 % 1033,0 hPa 0,0 l/m 0 min 0 min 0 W/m 0,0 km/h (0 Bft) 95,65 %
05.01.2020 22:54 6,4 C 5,6 C 5,0 C 85 % 1032,9 hPa 0,0 l/m 0 min 0 min 0 W/m 0,0 km/h (0 Bft) 95,74 %
05.01.2020 22:56 6,4 C 5,6 C 5,0 C 85 % 1033,0 hPa 0,0 l/m 0 min 0 min 0 W/m 0,0 km/h (0 Bft) 95,74 %
05.01.2020 22:58 6,4 C 5,6 C 5,0 C 85 % 1033,0 hPa 0,0 l/m 0 min 0 min 0 W/m 0,0 km/h (0 Bft) 97,87 %
05.01.2020 23:00 6,4 C 5,6 C 5,0 C 85 % 1033,0 hPa 0,0 l/m 0 min 0 min 0 W/m 0,0 km/h (0 Bft) 97,87 %
05.01.2020 23:02 6,4 C 5,6 C 5,0 C 85 % 1033,0 hPa 0,0 l/m 0 min 0 min 0 W/m 0,0 km/h (0 Bft) 97,87 %
05.01.2020 23:04 6,4 C 5,6 C 5,0 C 86 % 1033,0 hPa 0,0 l/m 0 min 0 min 0 W/m 0,0 km/h (0 Bft) 97,83 %
05.01.2020 23:06 6,4 C 5,6 C 5,0 C 86 % 1032,9 hPa 0,0 l/m 0 min 0 min 0 W/m 0,0 km/h (0 Bft) 93,62 %
05.01.2020 23:08 6,4 C 5,6 C 5,0 C 86 % 1032,9 hPa 0,0 l/m 0 min 0 min 0 W/m 0,0 km/h (0 Bft) 97,87 %
05.01.2020 23:10 6,4 C 5,6 C 5,0 C 86 % 1032,9 hPa 0,0 l/m 0 min 0 min 0 W/m 0,0 km/h (0 Bft) 100,00 %
05.01.2020 23:12 6,4 C 5,6 C 5,0 C 86 % 1032,9 hPa 0,0 l/m 0 min 0 min 0 W/m 0,0 km/h (0 Bft) 100,00 %
05.01.2020 23:14 6,3 C 5,6 C 5,0 C 86 % 1032,8 hPa 0,0 l/m 0 min 0 min 0 W/m 0,0 km/h (0 Bft) 100,00 %
05.01.2020 23:16 6,3 C 5,6 C 5,0 C 86 % 1032,9 hPa 0,0 l/m 0 min 0 min 0 W/m 0,0 km/h (0 Bft) 95,65 %
05.01.2020 23:18 6,3 C 5,6 C 5,0 C 86 % 1032,9 hPa 0,0 l/m 0 min 0 min 0 W/m 0,0 km/h (0 Bft) 100,00 %
05.01.2020 23:20 6,3 C 5,6 C 5,0 C 86 % 1032,9 hPa 0,0 l/m 0 min 0 min 0 W/m 0,0 km/h (0 Bft) 97,87 %
05.01.2020 23:22 6,3 C 5,6 C 5,0 C 86 % 1032,9 hPa 0,0 l/m 0 min 0 min 0 W/m 0,0 km/h (0 Bft) 100,00 %
05.01.2020 23:24 6,3 C 5,6 C 5,0 C 86 % 1032,9 hPa 0,0 l/m 0 min 0 min 0 W/m 0,0 km/h (0 Bft) 100,00 %
05.01.2020 23:26 6,3 C 5,6 C 5,0 C 86 % 1032,8 hPa 0,0 l/m 0 min 0 min 0 W/m 0,0 km/h (0 Bft) 100,00 %
05.01.2020 23:28 6,3 C 5,6 C 5,0 C 86 % 1032,8 hPa 0,0 l/m 0 min 0 min 0 W/m 0,0 km/h (0 Bft) 100,00 %
05.01.2020 23:30 6,3 C 5,6 C 5,0 C 86 % 1032,8 hPa 0,0 l/m 0 min 0 min 0 W/m 0,0 km/h (0 Bft) 100,00 %
05.01.2020 23:32 6,3 C 5,6 C 5,0 C 86 % 1032,8 hPa 0,0 l/m 0 min 0 min 0 W/m 0,0 km/h (0 Bft) 100,00 %
05.01.2020 23:34 6,3 C 5,6 C 5,0 C 86 % 1032,8 hPa 0,0 l/m 0 min 0 min 0 W/m 0,0 km/h (0 Bft) 100,00 %
05.01.2020 23:36 6,2 C 5,6 C 5,0 C 86 % 1032,7 hPa 0,0 l/m 0 min 0 min 0 W/m 0,0 km/h (0 Bft) 100,00 %
05.01.2020 23:38 6,2 C 5,6 C 5,0 C 86 % 1032,8 hPa 0,0 l/m 0 min 0 min 0 W/m 0,0 km/h (0 Bft) 100,00 %
05.01.2020 23:40 6,2 C 5,6 C 5,0 C 87 % 1032,7 hPa 0,0 l/m 0 min 0 min 0 W/m 0,0 km/h (0 Bft) 100,00 %
05.01.2020 23:42 6,2 C 5,6 C 5,0 C 87 % 1032,7 hPa 0,0 l/m 0 min 0 min 0 W/m 0,0 km/h (0 Bft) 100,00 %
05.01.2020 23:44 6,2 C 5,6 C 5,0 C 87 % 1032,7 hPa 0,0 l/m 0 min 0 min 0 W/m 0,0 km/h (0 Bft) 97,87 %
05.01.2020 23:46 6,2 C 5,6 C 5,0 C 87 % 1032,7 hPa 0,0 l/m 0 min 0 min 0 W/m 0,0 km/h (0 Bft) 97,87 %
05.01.2020 23:48 6,2 C 5,6 C 5,0 C 87 % 1032,7 hPa 0,0 l/m 0 min 0 min 0 W/m 0,0 km/h (0 Bft) 97,87 %
05.01.2020 23:50 6,2 C 5,6 C 5,0 C 87 % 1032,7 hPa 0,0 l/m 0 min 0 min 0 W/m 0,0 km/h (0 Bft) 97,83 %
05.01.2020 23:52 6,1 C 5,6 C 5,0 C 87 % 1032,7 hPa 0,0 l/m 0 min 0 min 0 W/m 0,0 km/h (0 Bft) 100,00 %
05.01.2020 23:54 6,1 C 5,6 C 5,0 C 87 % 1032,7 hPa 0,0 l/m 0 min 0 min 0 W/m 0,0 km/h (0 Bft) 97,87 %
05.01.2020 23:56 6,1 C 5,6 C 5,0 C 87 % 1032,7 hPa 0,0 l/m 0 min 0 min 0 W/m 0,0 km/h (0 Bft) 97,87 %
05.01.2020 23:58 6,1 C 5,6 C 5,0 C 87 % 1032,7 hPa 0,0 l/m 0 min 0 min 0 W/m 0,0 km/h (0 Bft) 97,87 %
_ Min-Zeit 08:28 00:00 07:24 18:12 23:36 - - - - 00:00 22:36
Minimum _ 5,8 C 5,6 C 4,4 C 80 % 1032,7 hPa - - - - 0,0 km/h (0 Bft) 36,36 %
_ Max-Zeit 14:24 12:30 13:06 05:40 10:52 00:00 00:00 00:00 12:26 14:50 00:54
Maximum _ 7,3 C 7,2 C 6,7 C 100 % 1036,0 hPa 0,0 l/m 0 min 0 min 76 W/m 25,7 km/h
S-SO (4 Bft)
100,00 %
Durchschnitt _ 6,5 C 6,0 C 5,3 C 92 % 1034,7 hPa #0,0 l/m #0 min. #0 min. 36 W/m 1,0 km/h (0 Bft) 96,96 %
© 2020 W. Hausmann